<?xml version="1.0" encoding="UTF-8" standalone="no" ?>
 
<gpx xmlns="http://www.topografix.com/GPX/1/1" creator="bikehike.co.uk" version="1.1" 
    xmlns:xsi="http://www.w3.org/2001/XMLSchema-instance" 
    xsi:schemaLocation="http://www.topografix.com/GPX/1/1 http://www.topografix.com/GPX/1/1/gpx.xsd">


  <trk>
    <name>Set-Rom02</name>
    <trkseg>
      <trkpt lat="43.723490" lon="4.719030">
       <ele>40</ele>
       <time>2013-10-22T14:18:33Z</time>
      </trkpt>
      <trkpt lat="43.723660" lon="4.719130">
       <ele>43</ele>
       <time>2013-10-22T14:18:36Z</time>
      </trkpt>
      <trkpt lat="43.723940" lon="4.719260">
       <ele>42</ele>
       <time>2013-10-22T14:18:42Z</time>
      </trkpt>
      <trkpt lat="43.724670" lon="4.719690">
       <ele>39</ele>
       <time>2013-10-22T14:18:59Z</time>
      </trkpt>
      <trkpt lat="43.725150" lon="4.719860">
       <ele>36</ele>
       <time>2013-10-22T14:19:09Z</time>
      </trkpt>
      <trkpt lat="43.725920" lon="4.719970">
       <ele>33</ele>
       <time>2013-10-22T14:19:25Z</time>
      </trkpt>
      <trkpt lat="43.726050" lon="4.720060">
       <ele>32</ele>
       <time>2013-10-22T14:19:28Z</time>
      </trkpt>
      <trkpt lat="43.726250" lon="4.720390">
       <ele>31</ele>
       <time>2013-10-22T14:19:35Z</time>
      </trkpt>
      <trkpt lat="43.726390" lon="4.720570">
       <ele>31</ele>
       <time>2013-10-22T14:19:39Z</time>
      </trkpt>
      <trkpt lat="43.726760" lon="4.719430">
       <ele>30</ele>
       <time>2013-10-22T14:19:57Z</time>
      </trkpt>
      <trkpt lat="43.727340" lon="4.718170">
       <ele>26</ele>
       <time>2013-10-22T14:20:20Z</time>
      </trkpt>
      <trkpt lat="43.727520" lon="4.717460">
       <ele>25</ele>
       <time>2013-10-22T14:20:31Z</time>
      </trkpt>
      <trkpt lat="43.727610" lon="4.716310">
       <ele>25</ele>
       <time>2013-10-22T14:20:48Z</time>
      </trkpt>
      <trkpt lat="43.727790" lon="4.715530">
       <ele>27</ele>
       <time>2013-10-22T14:21:01Z</time>
      </trkpt>
      <trkpt lat="43.727870" lon="4.714780">
       <ele>26</ele>
       <time>2013-10-22T14:21:12Z</time>
      </trkpt>
      <trkpt lat="43.727950" lon="4.714640">
       <ele>26</ele>
       <time>2013-10-22T14:21:15Z</time>
      </trkpt>
      <trkpt lat="43.728720" lon="4.717020">
       <ele>26</ele>
       <time>2013-10-22T14:21:54Z</time>
      </trkpt>
      <trkpt lat="43.729240" lon="4.718730">
       <ele>24</ele>
       <time>2013-10-22T14:22:22Z</time>
      </trkpt>
      <trkpt lat="43.729380" lon="4.719500">
       <ele>22</ele>
       <time>2013-10-22T14:22:33Z</time>
      </trkpt>
      <trkpt lat="43.729450" lon="4.720300">
       <ele>21</ele>
       <time>2013-10-22T14:22:46Z</time>
      </trkpt>
      <trkpt lat="43.729460" lon="4.721220">
       <ele>23</ele>
       <time>2013-10-22T14:22:59Z</time>
      </trkpt>
      <trkpt lat="43.729460" lon="4.721990">
       <ele>22</ele>
       <time>2013-10-22T14:23:11Z</time>
      </trkpt>
      <trkpt lat="43.729430" lon="4.724030">
       <ele>27</ele>
       <time>2013-10-22T14:23:41Z</time>
      </trkpt>
      <trkpt lat="43.729430" lon="4.725130">
       <ele>29</ele>
       <time>2013-10-22T14:23:58Z</time>
      </trkpt>
      <trkpt lat="43.729480" lon="4.726140">
       <ele>30</ele>
       <time>2013-10-22T14:24:13Z</time>
      </trkpt>
      <trkpt lat="43.730060" lon="4.729910">
       <ele>31</ele>
       <time>2013-10-22T14:25:11Z</time>
      </trkpt>
      <trkpt lat="43.730120" lon="4.730640">
       <ele>31</ele>
       <time>2013-10-22T14:25:22Z</time>
      </trkpt>
      <trkpt lat="43.730140" lon="4.731400">
       <ele>32</ele>
       <time>2013-10-22T14:25:33Z</time>
      </trkpt>
      <trkpt lat="43.730080" lon="4.732050">
       <ele>32</ele>
       <time>2013-10-22T14:25:43Z</time>
      </trkpt>
      <trkpt lat="43.728760" lon="4.737450">
       <ele>38</ele>
       <time>2013-10-22T14:27:08Z</time>
      </trkpt>
      <trkpt lat="43.728690" lon="4.737800">
       <ele>40</ele>
       <time>2013-10-22T14:27:14Z</time>
      </trkpt>
      <trkpt lat="43.728640" lon="4.738720">
       <ele>43</ele>
       <time>2013-10-22T14:27:28Z</time>
      </trkpt>
      <trkpt lat="43.729290" lon="4.744960">
       <ele>45</ele>
       <time>2013-10-22T14:29:02Z</time>
      </trkpt>
      <trkpt lat="43.729290" lon="4.745660">
       <ele>46</ele>
       <time>2013-10-22T14:29:13Z</time>
      </trkpt>
      <trkpt lat="43.729190" lon="4.746410">
       <ele>48</ele>
       <time>2013-10-22T14:29:24Z</time>
      </trkpt>
      <trkpt lat="43.727870" lon="4.751830">
       <ele>53</ele>
       <time>2013-10-22T14:30:50Z</time>
      </trkpt>
      <trkpt lat="43.727740" lon="4.752570">
       <ele>55</ele>
       <time>2013-10-22T14:31:01Z</time>
      </trkpt>
      <trkpt lat="43.727390" lon="4.756280">
       <ele>65</ele>
       <time>2013-10-22T14:31:57Z</time>
      </trkpt>
      <trkpt lat="43.727290" lon="4.756920">
       <ele>66</ele>
       <time>2013-10-22T14:32:07Z</time>
      </trkpt>
      <trkpt lat="43.727110" lon="4.757640">
       <ele>67</ele>
       <time>2013-10-22T14:32:18Z</time>
      </trkpt>
      <trkpt lat="43.725910" lon="4.761350">
       <ele>48</ele>
       <time>2013-10-22T14:33:19Z</time>
      </trkpt>
      <trkpt lat="43.725280" lon="4.764360">
       <ele>44</ele>
       <time>2013-10-22T14:34:06Z</time>
      </trkpt>
      <trkpt lat="43.724170" lon="4.767210">
       <ele>36</ele>
       <time>2013-10-22T14:34:55Z</time>
      </trkpt>
      <trkpt lat="43.723430" lon="4.769030">
       <ele>35</ele>
       <time>2013-10-22T14:35:26Z</time>
      </trkpt>
      <trkpt lat="43.722800" lon="4.771270">
       <ele>31</ele>
       <time>2013-10-22T14:36:02Z</time>
      </trkpt>
      <trkpt lat="43.722240" lon="4.773980">
       <ele>28</ele>
       <time>2013-10-22T14:36:44Z</time>
      </trkpt>
      <trkpt lat="43.722090" lon="4.774910">
       <ele>29</ele>
       <time>2013-10-22T14:36:59Z</time>
      </trkpt>
      <trkpt lat="43.721920" lon="4.775360">
       <ele>30</ele>
       <time>2013-10-22T14:37:06Z</time>
      </trkpt>
      <trkpt lat="43.721550" lon="4.775820">
       <ele>31</ele>
       <time>2013-10-22T14:37:17Z</time>
      </trkpt>
      <trkpt lat="43.720950" lon="4.776420">
       <ele>29</ele>
       <time>2013-10-22T14:37:32Z</time>
      </trkpt>
      <trkpt lat="43.720610" lon="4.776970">
       <ele>27</ele>
       <time>2013-10-22T14:37:43Z</time>
      </trkpt>
      <trkpt lat="43.720400" lon="4.777470">
       <ele>28</ele>
       <time>2013-10-22T14:37:51Z</time>
      </trkpt>
      <trkpt lat="43.720200" lon="4.778410">
       <ele>24</ele>
       <time>2013-10-22T14:38:06Z</time>
      </trkpt>
      <trkpt lat="43.720000" lon="4.780380">
       <ele>23</ele>
       <time>2013-10-22T14:38:36Z</time>
      </trkpt>
      <trkpt lat="43.719970" lon="4.780490">
       <ele>24</ele>
       <time>2013-10-22T14:38:38Z</time>
      </trkpt>
      <trkpt lat="43.719830" lon="4.780570">
       <ele>23</ele>
       <time>2013-10-22T14:38:41Z</time>
      </trkpt>
      <trkpt lat="43.719660" lon="4.780730">
       <ele>24</ele>
       <time>2013-10-22T14:38:45Z</time>
      </trkpt>
      <trkpt lat="43.719280" lon="4.781360">
       <ele>23</ele>
       <time>2013-10-22T14:38:57Z</time>
      </trkpt>
      <trkpt lat="43.718880" lon="4.782190">
       <ele>21</ele>
       <time>2013-10-22T14:39:12Z</time>
      </trkpt>
      <trkpt lat="43.718490" lon="4.782930">
       <ele>24</ele>
       <time>2013-10-22T14:39:26Z</time>
      </trkpt>
      <trkpt lat="43.718060" lon="4.783830">
       <ele>24</ele>
       <time>2013-10-22T14:39:42Z</time>
      </trkpt>
      <trkpt lat="43.718010" lon="4.784010">
       <ele>24</ele>
       <time>2013-10-22T14:39:45Z</time>
      </trkpt>
      <trkpt lat="43.717890" lon="4.784620">
       <ele>19</ele>
       <time>2013-10-22T14:39:55Z</time>
      </trkpt>
      <trkpt lat="43.717860" lon="4.784950">
       <ele>18</ele>
       <time>2013-10-22T14:40:00Z</time>
      </trkpt>
      <trkpt lat="43.717850" lon="4.785360">
       <ele>17</ele>
       <time>2013-10-22T14:40:06Z</time>
      </trkpt>
      <trkpt lat="43.717890" lon="4.786510">
       <ele>13</ele>
       <time>2013-10-22T14:40:23Z</time>
      </trkpt>
      <trkpt lat="43.717890" lon="4.787110">
       <ele>13</ele>
       <time>2013-10-22T14:40:32Z</time>
      </trkpt>
      <trkpt lat="43.717850" lon="4.787820">
       <ele>13</ele>
       <time>2013-10-22T14:40:43Z</time>
      </trkpt>
      <trkpt lat="43.717690" lon="4.788360">
       <ele>13</ele>
       <time>2013-10-22T14:40:51Z</time>
      </trkpt>
      <trkpt lat="43.717560" lon="4.788850">
       <ele>12</ele>
       <time>2013-10-22T14:40:59Z</time>
      </trkpt>
      <trkpt lat="43.717380" lon="4.789340">
       <ele>11</ele>
       <time>2013-10-22T14:41:07Z</time>
      </trkpt>
      <trkpt lat="43.716940" lon="4.790700">
       <ele>9</ele>
       <time>2013-10-22T14:41:30Z</time>
      </trkpt>
      <trkpt lat="43.716670" lon="4.791800">
       <ele>10</ele>
       <time>2013-10-22T14:41:47Z</time>
      </trkpt>
      <trkpt lat="43.716330" lon="4.793380">
       <ele>12</ele>
       <time>2013-10-22T14:42:12Z</time>
      </trkpt>
      <trkpt lat="43.716200" lon="4.793920">
       <ele>12</ele>
       <time>2013-10-22T14:42:20Z</time>
      </trkpt>
      <trkpt lat="43.716170" lon="4.794340">
       <ele>12</ele>
       <time>2013-10-22T14:42:27Z</time>
      </trkpt>
      <trkpt lat="43.716200" lon="4.794530">
       <ele>12</ele>
       <time>2013-10-22T14:42:30Z</time>
      </trkpt>
      <trkpt lat="43.716300" lon="4.794950">
       <ele>12</ele>
       <time>2013-10-22T14:42:36Z</time>
      </trkpt>
      <trkpt lat="43.716290" lon="4.795130">
       <ele>12</ele>
       <time>2013-10-22T14:42:39Z</time>
      </trkpt>
      <trkpt lat="43.716110" lon="4.795940">
       <ele>14</ele>
       <time>2013-10-22T14:42:52Z</time>
      </trkpt>
      <trkpt lat="43.715980" lon="4.796290">
       <ele>14</ele>
       <time>2013-10-22T14:42:58Z</time>
      </trkpt>
      <trkpt lat="43.715460" lon="4.797340">
       <ele>14</ele>
       <time>2013-10-22T14:43:17Z</time>
      </trkpt>
      <trkpt lat="43.714930" lon="4.798490">
       <ele>13</ele>
       <time>2013-10-22T14:43:37Z</time>
      </trkpt>
      <trkpt lat="43.714680" lon="4.799200">
       <ele>13</ele>
       <time>2013-10-22T14:43:49Z</time>
      </trkpt>
      <trkpt lat="43.714400" lon="4.800150">
       <ele>15</ele>
       <time>2013-10-22T14:44:04Z</time>
      </trkpt>
      <trkpt lat="43.714320" lon="4.800350">
       <ele>15</ele>
       <time>2013-10-22T14:44:08Z</time>
      </trkpt>
      <trkpt lat="43.714180" lon="4.800580">
       <ele>14</ele>
       <time>2013-10-22T14:44:12Z</time>
      </trkpt>
      <trkpt lat="43.714000" lon="4.800830">
       <ele>13</ele>
       <time>2013-10-22T14:44:18Z</time>
      </trkpt>
      <trkpt lat="43.713600" lon="4.801830">
       <ele>13</ele>
       <time>2013-10-22T14:44:35Z</time>
      </trkpt>
      <trkpt lat="43.713080" lon="4.803510">
       <ele>16</ele>
       <time>2013-10-22T14:45:02Z</time>
      </trkpt>
      <trkpt lat="43.712570" lon="4.805360">
       <ele>13</ele>
       <time>2013-10-22T14:45:32Z</time>
      </trkpt>
      <trkpt lat="43.712280" lon="4.806250">
       <ele>13</ele>
       <time>2013-10-22T14:45:46Z</time>
      </trkpt>
      <trkpt lat="43.710990" lon="4.809920">
       <ele>11</ele>
       <time>2013-10-22T14:46:48Z</time>
      </trkpt>
      <trkpt lat="43.710380" lon="4.811780">
       <ele>10</ele>
       <time>2013-10-22T14:47:18Z</time>
      </trkpt>
      <trkpt lat="43.710140" lon="4.812420">
       <ele>10</ele>
       <time>2013-10-22T14:47:29Z</time>
      </trkpt>
      <trkpt lat="43.709960" lon="4.813170">
       <ele>10</ele>
       <time>2013-10-22T14:47:41Z</time>
      </trkpt>
      <trkpt lat="43.709830" lon="4.814040">
       <ele>13</ele>
       <time>2013-10-22T14:47:54Z</time>
      </trkpt>
      <trkpt lat="43.709670" lon="4.814770">
       <ele>14</ele>
       <time>2013-10-22T14:48:06Z</time>
      </trkpt>
      <trkpt lat="43.708140" lon="4.819790">
       <ele>7</ele>
       <time>2013-10-22T14:49:27Z</time>
      </trkpt>
      <trkpt lat="43.708050" lon="4.820050">
       <ele>7</ele>
       <time>2013-10-22T14:49:32Z</time>
      </trkpt>
      <trkpt lat="43.707610" lon="4.820740">
       <ele>7</ele>
       <time>2013-10-22T14:49:45Z</time>
      </trkpt>
      <trkpt lat="43.707450" lon="4.821110">
       <ele>8</ele>
       <time>2013-10-22T14:49:52Z</time>
      </trkpt>
      <trkpt lat="43.707350" lon="4.821420">
       <ele>8</ele>
       <time>2013-10-22T14:49:57Z</time>
      </trkpt>
      <trkpt lat="43.707310" lon="4.821610">
       <ele>8</ele>
       <time>2013-10-22T14:50:00Z</time>
      </trkpt>
      <trkpt lat="43.707290" lon="4.821860">
       <ele>8</ele>
       <time>2013-10-22T14:50:04Z</time>
      </trkpt>
      <trkpt lat="43.707290" lon="4.822190">
       <ele>10</ele>
       <time>2013-10-22T14:50:09Z</time>
      </trkpt>
      <trkpt lat="43.707050" lon="4.822560">
       <ele>10</ele>
       <time>2013-10-22T14:50:16Z</time>
      </trkpt>
      <trkpt lat="43.706500" lon="4.823810">
       <ele>7</ele>
       <time>2013-10-22T14:50:38Z</time>
      </trkpt>
      <trkpt lat="43.704390" lon="4.830450">
       <ele>8</ele>
       <time>2013-10-22T14:52:27Z</time>
      </trkpt>
      <trkpt lat="43.704070" lon="4.831360">
       <ele>7</ele>
       <time>2013-10-22T14:52:42Z</time>
      </trkpt>
      <trkpt lat="43.703830" lon="4.831900">
       <ele>8</ele>
       <time>2013-10-22T14:52:51Z</time>
      </trkpt>
      <trkpt lat="43.703400" lon="4.832560">
       <ele>8</ele>
       <time>2013-10-22T14:53:05Z</time>
      </trkpt>
      <trkpt lat="43.702860" lon="4.833310">
       <ele>7</ele>
       <time>2013-10-22T14:53:21Z</time>
      </trkpt>
      <trkpt lat="43.702560" lon="4.833710">
       <ele>7</ele>
       <time>2013-10-22T14:53:29Z</time>
      </trkpt>
      <trkpt lat="43.702300" lon="4.833990">
       <ele>7</ele>
       <time>2013-10-22T14:53:36Z</time>
      </trkpt>
      <trkpt lat="43.698700" lon="4.837360">
       <ele>8</ele>
       <time>2013-10-22T14:55:06Z</time>
      </trkpt>
      <trkpt lat="43.698340" lon="4.837780">
       <ele>8</ele>
       <time>2013-10-22T14:55:16Z</time>
      </trkpt>
      <trkpt lat="43.697810" lon="4.838540">
       <ele>7</ele>
       <time>2013-10-22T14:55:32Z</time>
      </trkpt>
      <trkpt lat="43.697440" lon="4.839150">
       <ele>7</ele>
       <time>2013-10-22T14:55:44Z</time>
      </trkpt>
      <trkpt lat="43.696930" lon="4.840150">
       <ele>6</ele>
       <time>2013-10-22T14:56:02Z</time>
      </trkpt>
      <trkpt lat="43.696410" lon="4.841310">
       <ele>7</ele>
       <time>2013-10-22T14:56:22Z</time>
      </trkpt>
      <trkpt lat="43.695880" lon="4.842930">
       <ele>10</ele>
       <time>2013-10-22T14:56:49Z</time>
      </trkpt>
      <trkpt lat="43.695000" lon="4.845700">
       <ele>6</ele>
       <time>2013-10-22T14:57:34Z</time>
      </trkpt>
      <trkpt lat="43.694770" lon="4.846830">
       <ele>8</ele>
       <time>2013-10-22T14:57:52Z</time>
      </trkpt>
      <trkpt lat="43.693640" lon="4.854070">
       <ele>7</ele>
       <time>2013-10-22T14:59:43Z</time>
      </trkpt>
      <trkpt lat="43.692390" lon="4.858510">
       <ele>9</ele>
       <time>2013-10-22T15:00:55Z</time>
      </trkpt>
      <trkpt lat="43.692130" lon="4.859520">
       <ele>9</ele>
       <time>2013-10-22T15:01:11Z</time>
      </trkpt>
      <trkpt lat="43.691890" lon="4.860740">
       <ele>9</ele>
       <time>2013-10-22T15:01:30Z</time>
      </trkpt>
      <trkpt lat="43.691390" lon="4.862850">
       <ele>8</ele>
       <time>2013-10-22T15:02:03Z</time>
      </trkpt>
      <trkpt lat="43.690800" lon="4.865170">
       <ele>7</ele>
       <time>2013-10-22T15:02:40Z</time>
      </trkpt>
      <trkpt lat="43.690720" lon="4.865360">
       <ele>7</ele>
       <time>2013-10-22T15:02:43Z</time>
      </trkpt>
      <trkpt lat="43.690650" lon="4.865430">
       <ele>8</ele>
       <time>2013-10-22T15:02:45Z</time>
      </trkpt>
      <trkpt lat="43.690620" lon="4.865440">
       <ele>8</ele>
       <time>2013-10-22T15:02:45Z</time>
      </trkpt>
      <trkpt lat="43.690570" lon="4.865490">
       <ele>8</ele>
       <time>2013-10-22T15:02:47Z</time>
      </trkpt>
      <trkpt lat="43.690550" lon="4.865550">
       <ele>8</ele>
       <time>2013-10-22T15:02:48Z</time>
      </trkpt>
      <trkpt lat="43.690590" lon="4.865780">
       <ele>8</ele>
       <time>2013-10-22T15:02:51Z</time>
      </trkpt>
      <trkpt lat="43.690570" lon="4.866100">
       <ele>9</ele>
       <time>2013-10-22T15:02:56Z</time>
      </trkpt>
      <trkpt lat="43.690390" lon="4.866780">
       <ele>11</ele>
       <time>2013-10-22T15:03:07Z</time>
      </trkpt>
      <trkpt lat="43.689570" lon="4.869290">
       <ele>10</ele>
       <time>2013-10-22T15:03:48Z</time>
      </trkpt>
      <trkpt lat="43.689300" lon="4.870050">
       <ele>13</ele>
       <time>2013-10-22T15:04:01Z</time>
      </trkpt>
      <trkpt lat="43.689200" lon="4.870400">
       <ele>14</ele>
       <time>2013-10-22T15:04:07Z</time>
      </trkpt>
      <trkpt lat="43.689070" lon="4.871390">
       <ele>16</ele>
       <time>2013-10-22T15:04:22Z</time>
      </trkpt>
      <trkpt lat="43.688300" lon="4.874620">
       <ele>17</ele>
       <time>2013-10-22T15:05:13Z</time>
      </trkpt>
      <trkpt lat="43.687790" lon="4.876450">
       <ele>15</ele>
       <time>2013-10-22T15:05:42Z</time>
      </trkpt>
      <trkpt lat="43.687450" lon="4.877910">
       <ele>14</ele>
       <time>2013-10-22T15:06:05Z</time>
      </trkpt>
      <trkpt lat="43.687400" lon="4.878030">
       <ele>15</ele>
       <time>2013-10-22T15:06:07Z</time>
      </trkpt>
      <trkpt lat="43.687340" lon="4.878070">
       <ele>14</ele>
       <time>2013-10-22T15:06:09Z</time>
      </trkpt>
      <trkpt lat="43.687320" lon="4.878110">
       <ele>14</ele>
       <time>2013-10-22T15:06:09Z</time>
      </trkpt>
      <trkpt lat="43.687300" lon="4.878190">
       <ele>14</ele>
       <time>2013-10-22T15:06:11Z</time>
      </trkpt>
      <trkpt lat="43.687320" lon="4.878290">
       <ele>15</ele>
       <time>2013-10-22T15:06:12Z</time>
      </trkpt>
      <trkpt lat="43.687320" lon="4.878430">
       <ele>15</ele>
       <time>2013-10-22T15:06:14Z</time>
      </trkpt>
      <trkpt lat="43.687270" lon="4.878680">
       <ele>15</ele>
       <time>2013-10-22T15:06:18Z</time>
      </trkpt>
      <trkpt lat="43.684070" lon="4.890480">
       <ele>23</ele>
       <time>2013-10-22T15:09:27Z</time>
      </trkpt>
      <trkpt lat="43.683960" lon="4.890790">
       <ele>25</ele>
       <time>2013-10-22T15:09:32Z</time>
      </trkpt>
      <trkpt lat="43.683830" lon="4.890950">
       <ele>25</ele>
       <time>2013-10-22T15:09:36Z</time>
      </trkpt>
      <trkpt lat="43.683650" lon="4.891000">
       <ele>29</ele>
       <time>2013-10-22T15:09:40Z</time>
      </trkpt>
      <trkpt lat="43.683520" lon="4.891020">
       <ele>29</ele>
       <time>2013-10-22T15:09:42Z</time>
      </trkpt>
      <trkpt lat="43.681860" lon="4.890790">
       <ele>35</ele>
       <time>2013-10-22T15:10:17Z</time>
      </trkpt>
      <trkpt lat="43.681480" lon="4.890820">
       <ele>36</ele>
       <time>2013-10-22T15:10:25Z</time>
      </trkpt>
      <trkpt lat="43.681110" lon="4.890980">
       <ele>42</ele>
       <time>2013-10-22T15:10:33Z</time>
      </trkpt>
      <trkpt lat="43.681060" lon="4.891090">
       <ele>42</ele>
       <time>2013-10-22T15:10:35Z</time>
      </trkpt>
      <trkpt lat="43.681030" lon="4.891210">
       <ele>42</ele>
       <time>2013-10-22T15:10:37Z</time>
      </trkpt>
      <trkpt lat="43.681030" lon="4.891350">
       <ele>48</ele>
       <time>2013-10-22T15:10:39Z</time>
      </trkpt>
      <trkpt lat="43.681090" lon="4.891520">
       <ele>48</ele>
       <time>2013-10-22T15:10:42Z</time>
      </trkpt>
      <trkpt lat="43.681300" lon="4.891740">
       <ele>52</ele>
       <time>2013-10-22T15:10:47Z</time>
      </trkpt>
      <trkpt lat="43.682560" lon="4.892430">
       <ele>54</ele>
       <time>2013-10-22T15:11:15Z</time>
      </trkpt>
      <trkpt lat="43.682810" lon="4.892680">
       <ele>54</ele>
       <time>2013-10-22T15:11:22Z</time>
      </trkpt>
      <trkpt lat="43.682930" lon="4.892970">
       <ele>55</ele>
       <time>2013-10-22T15:11:27Z</time>
      </trkpt>
      <trkpt lat="43.683020" lon="4.893440">
       <ele>57</ele>
       <time>2013-10-22T15:11:34Z</time>
      </trkpt>
      <trkpt lat="43.683120" lon="4.893750">
       <ele>62</ele>
       <time>2013-10-22T15:11:39Z</time>
      </trkpt>
      <trkpt lat="43.683310" lon="4.894000">
       <ele>60</ele>
       <time>2013-10-22T15:11:44Z</time>
      </trkpt>
      <trkpt lat="43.683940" lon="4.894310">
       <ele>64</ele>
       <time>2013-10-22T15:11:58Z</time>
      </trkpt>
      <trkpt lat="43.684120" lon="4.894550">
       <ele>62</ele>
       <time>2013-10-22T15:12:03Z</time>
      </trkpt>
      <trkpt lat="43.684340" lon="4.894980">
       <ele>65</ele>
       <time>2013-10-22T15:12:11Z</time>
      </trkpt>
      <trkpt lat="43.684970" lon="4.895500">
       <ele>69</ele>
       <time>2013-10-22T15:12:27Z</time>
      </trkpt>
      <trkpt lat="43.685240" lon="4.896050">
       <ele>74</ele>
       <time>2013-10-22T15:12:37Z</time>
      </trkpt>
      <trkpt lat="43.699100" lon="4.937550">
       <ele>111</ele>
       <time>2013-10-22T15:24:02Z</time>
      </trkpt>
      <trkpt lat="43.699320" lon="4.938460">
       <ele>111</ele>
       <time>2013-10-22T15:24:16Z</time>
      </trkpt>
      <trkpt lat="43.699200" lon="4.938390">
       <ele>110</ele>
       <time>2013-10-22T15:24:19Z</time>
      </trkpt>
      <trkpt lat="43.699080" lon="4.938500">
       <ele>109</ele>
       <time>2013-10-22T15:24:22Z</time>
      </trkpt>
      <trkpt lat="43.699050" lon="4.938690">
       <ele>109</ele>
       <time>2013-10-22T15:24:25Z</time>
      </trkpt>
      <trkpt lat="43.699120" lon="4.938850">
       <ele>109</ele>
       <time>2013-10-22T15:24:28Z</time>
      </trkpt>
      <trkpt lat="43.699240" lon="4.938880">
       <ele>109</ele>
       <time>2013-10-22T15:24:30Z</time>
      </trkpt>
      <trkpt lat="43.699180" lon="4.938980">
       <ele>109</ele>
       <time>2013-10-22T15:24:32Z</time>
      </trkpt>
      <trkpt lat="43.698410" lon="4.944380">
       <ele>106</ele>
       <time>2013-10-22T15:25:55Z</time>
      </trkpt>
      <trkpt lat="43.698000" lon="4.947390">
       <ele>100</ele>
       <time>2013-10-22T15:26:41Z</time>
      </trkpt>
      <trkpt lat="43.695010" lon="4.970160">
       <ele>101</ele>
       <time>2013-10-22T15:32:28Z</time>
      </trkpt>
      <trkpt lat="43.694900" lon="4.971400">
       <ele>103</ele>
       <time>2013-10-22T15:32:46Z</time>
      </trkpt>
      <trkpt lat="43.694900" lon="4.987470">
       <ele>98</ele>
       <time>2013-10-22T15:36:47Z</time>
      </trkpt>
      <trkpt lat="43.693060" lon="4.997560">
       <ele>97</ele>
       <time>2013-10-22T15:39:23Z</time>
      </trkpt>
      <trkpt lat="43.692780" lon="5.007250">
       <ele>95</ele>
       <time>2013-10-22T15:41:49Z</time>
      </trkpt>
      <trkpt lat="43.692630" lon="5.011250">
       <ele>85</ele>
       <time>2013-10-22T15:42:49Z</time>
      </trkpt>
      <trkpt lat="43.692610" lon="5.011450">
       <ele>85</ele>
       <time>2013-10-22T15:42:52Z</time>
      </trkpt>
      <trkpt lat="43.692580" lon="5.011730">
       <ele>84</ele>
       <time>2013-10-22T15:42:56Z</time>
      </trkpt>
      <trkpt lat="43.692450" lon="5.012190">
       <ele>84</ele>
       <time>2013-10-22T15:43:03Z</time>
      </trkpt>
      <trkpt lat="43.692310" lon="5.012510">
       <ele>83</ele>
       <time>2013-10-22T15:43:09Z</time>
      </trkpt>
      <trkpt lat="43.691310" lon="5.014470">
       <ele>83</ele>
       <time>2013-10-22T15:43:45Z</time>
      </trkpt>
      <trkpt lat="43.690910" lon="5.015360">
       <ele>81</ele>
       <time>2013-10-22T15:44:01Z</time>
      </trkpt>
      <trkpt lat="43.689690" lon="5.018900">
       <ele>85</ele>
       <time>2013-10-22T15:44:59Z</time>
      </trkpt>
      <trkpt lat="43.689510" lon="5.019570">
       <ele>84</ele>
       <time>2013-10-22T15:45:10Z</time>
      </trkpt>
      <trkpt lat="43.689250" lon="5.020880">
       <ele>83</ele>
       <time>2013-10-22T15:45:30Z</time>
      </trkpt>
      <trkpt lat="43.689300" lon="5.021660">
       <ele>81</ele>
       <time>2013-10-22T15:45:42Z</time>
      </trkpt>
      <trkpt lat="43.689380" lon="5.021980">
       <ele>83</ele>
       <time>2013-10-22T15:45:47Z</time>
      </trkpt>
      <trkpt lat="43.689220" lon="5.023350">
       <ele>77</ele>
       <time>2013-10-22T15:46:08Z</time>
      </trkpt>
      <trkpt lat="43.689200" lon="5.024520">
       <ele>77</ele>
       <time>2013-10-22T15:46:26Z</time>
      </trkpt>
      <trkpt lat="43.688950" lon="5.025080">
       <ele>77</ele>
       <time>2013-10-22T15:46:35Z</time>
      </trkpt>
      <trkpt lat="43.688900" lon="5.025320">
       <ele>76</ele>
       <time>2013-10-22T15:46:39Z</time>
      </trkpt>
      <trkpt lat="43.688820" lon="5.027030">
       <ele>76</ele>
       <time>2013-10-22T15:47:05Z</time>
      </trkpt>
      <trkpt lat="43.688930" lon="5.029090">
       <ele>79</ele>
       <time>2013-10-22T15:47:36Z</time>
      </trkpt>
      <trkpt lat="43.689010" lon="5.029730">
       <ele>80</ele>
       <time>2013-10-22T15:47:46Z</time>
      </trkpt>
      <trkpt lat="43.689060" lon="5.030420">
       <ele>82</ele>
       <time>2013-10-22T15:47:56Z</time>
      </trkpt>
      <trkpt lat="43.689030" lon="5.030490">
       <ele>82</ele>
       <time>2013-10-22T15:47:57Z</time>
      </trkpt>
      <trkpt lat="43.689030" lon="5.030570">
       <ele>82</ele>
       <time>2013-10-22T15:47:58Z</time>
      </trkpt>
      <trkpt lat="43.689040" lon="5.030640">
       <ele>82</ele>
       <time>2013-10-22T15:47:59Z</time>
      </trkpt>
      <trkpt lat="43.689070" lon="5.030680">
       <ele>82</ele>
       <time>2013-10-22T15:48:00Z</time>
      </trkpt>
      <trkpt lat="43.688960" lon="5.031450">
       <ele>82</ele>
       <time>2013-10-22T15:48:12Z</time>
      </trkpt>
      <trkpt lat="43.688930" lon="5.032470">
       <ele>82</ele>
       <time>2013-10-22T15:48:27Z</time>
      </trkpt>
      <trkpt lat="43.688900" lon="5.033050">
       <ele>81</ele>
       <time>2013-10-22T15:48:36Z</time>
      </trkpt>
      <trkpt lat="43.688850" lon="5.033550">
       <ele>79</ele>
       <time>2013-10-22T15:48:44Z</time>
      </trkpt>
      <trkpt lat="43.688430" lon="5.035590">
       <ele>76</ele>
       <time>2013-10-22T15:49:16Z</time>
      </trkpt>
      <trkpt lat="43.688380" lon="5.035910">
       <ele>76</ele>
       <time>2013-10-22T15:49:20Z</time>
      </trkpt>
      <trkpt lat="43.688330" lon="5.037210">
       <ele>78</ele>
       <time>2013-10-22T15:49:40Z</time>
      </trkpt>
      <trkpt lat="43.688290" lon="5.037630">
       <ele>79</ele>
       <time>2013-10-22T15:49:46Z</time>
      </trkpt>
      <trkpt lat="43.688060" lon="5.038880">
       <ele>82</ele>
       <time>2013-10-22T15:50:06Z</time>
      </trkpt>
      <trkpt lat="43.687800" lon="5.040470">
       <ele>81</ele>
       <time>2013-10-22T15:50:30Z</time>
      </trkpt>
      <trkpt lat="43.687740" lon="5.041410">
       <ele>82</ele>
       <time>2013-10-22T15:50:44Z</time>
      </trkpt>
      <trkpt lat="43.688080" lon="5.047180">
       <ele>90</ele>
       <time>2013-10-22T15:52:11Z</time>
      </trkpt>
      <trkpt lat="43.688250" lon="5.048380">
       <ele>92</ele>
       <time>2013-10-22T15:52:29Z</time>
      </trkpt>
      <trkpt lat="43.688320" lon="5.048660">
       <ele>92</ele>
       <time>2013-10-22T15:52:34Z</time>
      </trkpt>
      <trkpt lat="43.688330" lon="5.049010">
       <ele>93</ele>
       <time>2013-10-22T15:52:39Z</time>
      </trkpt>
      <trkpt lat="43.688290" lon="5.049120">
       <ele>94</ele>
       <time>2013-10-22T15:52:41Z</time>
      </trkpt>
      <trkpt lat="43.688300" lon="5.049220">
       <ele>94</ele>
       <time>2013-10-22T15:52:42Z</time>
      </trkpt>
      <trkpt lat="43.688350" lon="5.049340">
       <ele>96</ele>
       <time>2013-10-22T15:52:44Z</time>
      </trkpt>
      <trkpt lat="43.688460" lon="5.049390">
       <ele>96</ele>
       <time>2013-10-22T15:52:47Z</time>
      </trkpt>
      <trkpt lat="43.688590" lon="5.049720">
       <ele>98</ele>
       <time>2013-10-22T15:52:53Z</time>
      </trkpt>
      <trkpt lat="43.688640" lon="5.050160">
       <ele>102</ele>
       <time>2013-10-22T15:52:59Z</time>
      </trkpt>
      <trkpt lat="43.688460" lon="5.051580">
       <ele>109</ele>
       <time>2013-10-22T15:53:21Z</time>
      </trkpt>
      <trkpt lat="43.688450" lon="5.052090">
       <ele>112</ele>
       <time>2013-10-22T15:53:28Z</time>
      </trkpt>
      <trkpt lat="43.688490" lon="5.052440">
       <ele>115</ele>
       <time>2013-10-22T15:53:34Z</time>
      </trkpt>
      <trkpt lat="43.688590" lon="5.052870">
       <ele>115</ele>
       <time>2013-10-22T15:53:41Z</time>
      </trkpt>
      <trkpt lat="43.688700" lon="5.053470">
       <ele>116</ele>
       <time>2013-10-22T15:53:50Z</time>
      </trkpt>
      <trkpt lat="43.688800" lon="5.054290">
       <ele>118</ele>
       <time>2013-10-22T15:54:02Z</time>
      </trkpt>
      <trkpt lat="43.688850" lon="5.055070">
       <ele>118</ele>
       <time>2013-10-22T15:54:14Z</time>
      </trkpt>
      <trkpt lat="43.688800" lon="5.055860">
       <ele>120</ele>
       <time>2013-10-22T15:54:26Z</time>
      </trkpt>
      <trkpt lat="43.688820" lon="5.056140">
       <ele>120</ele>
       <time>2013-10-22T15:54:30Z</time>
      </trkpt>
      <trkpt lat="43.688960" lon="5.056870">
       <ele>120</ele>
       <time>2013-10-22T15:54:41Z</time>
      </trkpt>
      <trkpt lat="43.689110" lon="5.058210">
       <ele>120</ele>
       <time>2013-10-22T15:55:02Z</time>
      </trkpt>
      <trkpt lat="43.689410" lon="5.059920">
       <ele>120</ele>
       <time>2013-10-22T15:55:28Z</time>
      </trkpt>
      <trkpt lat="43.689540" lon="5.061070">
       <ele>123</ele>
       <time>2013-10-22T15:55:46Z</time>
      </trkpt>
      <trkpt lat="43.689570" lon="5.061490">
       <ele>124</ele>
       <time>2013-10-22T15:55:52Z</time>
      </trkpt>
      <trkpt lat="43.689570" lon="5.061820">
       <ele>125</ele>
       <time>2013-10-22T15:55:57Z</time>
      </trkpt>
      <trkpt lat="43.689350" lon="5.062920">
       <ele>124</ele>
       <time>2013-10-22T15:56:14Z</time>
      </trkpt>
      <trkpt lat="43.689300" lon="5.063360">
       <ele>121</ele>
       <time>2013-10-22T15:56:21Z</time>
      </trkpt>
      <trkpt lat="43.689300" lon="5.063740">
       <ele>120</ele>
       <time>2013-10-22T15:56:26Z</time>
      </trkpt>
      <trkpt lat="43.689330" lon="5.064070">
       <ele>119</ele>
       <time>2013-10-22T15:56:31Z</time>
      </trkpt>
      <trkpt lat="43.689440" lon="5.064540">
       <ele>118</ele>
       <time>2013-10-22T15:56:39Z</time>
      </trkpt>
      <trkpt lat="43.689890" lon="5.065740">
       <ele>116</ele>
       <time>2013-10-22T15:56:59Z</time>
      </trkpt>
      <trkpt lat="43.690010" lon="5.066270">
       <ele>114</ele>
       <time>2013-10-22T15:57:07Z</time>
      </trkpt>
      <trkpt lat="43.690020" lon="5.067000">
       <ele>114</ele>
       <time>2013-10-22T15:57:18Z</time>
      </trkpt>
      <trkpt lat="43.690100" lon="5.067450">
       <ele>114</ele>
       <time>2013-10-22T15:57:25Z</time>
      </trkpt>
      <trkpt lat="43.690890" lon="5.069610">
       <ele>124</ele>
       <time>2013-10-22T15:58:02Z</time>
      </trkpt>
      <trkpt lat="43.691180" lon="5.070960">
       <ele>124</ele>
       <time>2013-10-22T15:58:23Z</time>
      </trkpt>
      <trkpt lat="43.691420" lon="5.071710">
       <ele>123</ele>
       <time>2013-10-22T15:58:35Z</time>
      </trkpt>
      <trkpt lat="43.692160" lon="5.072960">
       <ele>118</ele>
       <time>2013-10-22T15:58:59Z</time>
      </trkpt>
      <trkpt lat="43.692410" lon="5.073440">
       <ele>118</ele>
       <time>2013-10-22T15:59:08Z</time>
      </trkpt>
      <trkpt lat="43.692760" lon="5.074480">
       <ele>118</ele>
       <time>2013-10-22T15:59:25Z</time>
      </trkpt>
      <trkpt lat="43.693080" lon="5.074910">
       <ele>120</ele>
       <time>2013-10-22T15:59:35Z</time>
      </trkpt>
      <trkpt lat="43.693420" lon="5.075400">
       <ele>124</ele>
       <time>2013-10-22T15:59:45Z</time>
      </trkpt>
      <trkpt lat="43.693920" lon="5.075990">
       <ele>128</ele>
       <time>2013-10-22T15:59:58Z</time>
      </trkpt>
      <trkpt lat="43.694550" lon="5.076850">
       <ele>125</ele>
       <time>2013-10-22T16:00:17Z</time>
      </trkpt>
      <trkpt lat="43.695380" lon="5.077850">
       <ele>123</ele>
       <time>2013-10-22T16:00:40Z</time>
      </trkpt>
      <trkpt lat="43.695830" lon="5.078360">
       <ele>121</ele>
       <time>2013-10-22T16:00:52Z</time>
      </trkpt>
      <trkpt lat="43.696380" lon="5.079080">
       <ele>121</ele>
       <time>2013-10-22T16:01:07Z</time>
      </trkpt>
      <trkpt lat="43.696520" lon="5.079280">
       <ele>121</ele>
       <time>2013-10-22T16:01:11Z</time>
      </trkpt>
      <trkpt lat="43.696600" lon="5.079440">
       <ele>121</ele>
       <time>2013-10-22T16:01:14Z</time>
      </trkpt>
      <trkpt lat="43.697090" lon="5.080520">
       <ele>118</ele>
       <time>2013-10-22T16:01:33Z</time>
      </trkpt>
      <trkpt lat="43.697550" lon="5.081250">
       <ele>112</ele>
       <time>2013-10-22T16:01:48Z</time>
      </trkpt>
      <trkpt lat="43.697730" lon="5.081470">
       <ele>111</ele>
       <time>2013-10-22T16:01:53Z</time>
      </trkpt>
      <trkpt lat="43.697960" lon="5.081690">
       <ele>108</ele>
       <time>2013-10-22T16:01:59Z</time>
      </trkpt>
      <trkpt lat="43.698630" lon="5.082320">
       <ele>107</ele>
       <time>2013-10-22T16:02:16Z</time>
      </trkpt>
      <trkpt lat="43.699050" lon="5.082530">
       <ele>110</ele>
       <time>2013-10-22T16:02:25Z</time>
      </trkpt>
      <trkpt lat="43.699650" lon="5.082760">
       <ele>109</ele>
       <time>2013-10-22T16:02:38Z</time>
      </trkpt>
      <trkpt lat="43.699980" lon="5.082970">
       <ele>108</ele>
       <time>2013-10-22T16:02:45Z</time>
      </trkpt>
      <trkpt lat="43.700420" lon="5.083430">
       <ele>111</ele>
       <time>2013-10-22T16:02:57Z</time>
      </trkpt>
      <trkpt lat="43.699080" lon="5.085540">
       <ele>97</ele>
       <time>2013-10-22T16:03:39Z</time>
      </trkpt>
      <trkpt lat="43.699390" lon="5.086640">
       <ele>99</ele>
       <time>2013-10-22T16:03:57Z</time>
      </trkpt>
      <trkpt lat="43.699470" lon="5.086780">
       <ele>99</ele>
       <time>2013-10-22T16:03:59Z</time>
      </trkpt>
      <trkpt lat="43.699900" lon="5.088390">
       <ele>97</ele>
       <time>2013-10-22T16:04:25Z</time>
      </trkpt>
      <trkpt lat="43.699920" lon="5.088590">
       <ele>98</ele>
       <time>2013-10-22T16:04:28Z</time>
      </trkpt>
      <trkpt lat="43.699900" lon="5.088640">
       <ele>98</ele>
       <time>2013-10-22T16:04:29Z</time>
      </trkpt>
      <trkpt lat="43.699900" lon="5.088720">
       <ele>98</ele>
       <time>2013-10-22T16:04:30Z</time>
      </trkpt>
      <trkpt lat="43.699950" lon="5.088790">
       <ele>98</ele>
       <time>2013-10-22T16:04:31Z</time>
      </trkpt>
      <trkpt lat="43.699980" lon="5.088820">
       <ele>98</ele>
       <time>2013-10-22T16:04:32Z</time>
      </trkpt>
      <trkpt lat="43.700080" lon="5.089010">
       <ele>98</ele>
       <time>2013-10-22T16:04:36Z</time>
      </trkpt>
      <trkpt lat="43.700870" lon="5.092270">
       <ele>103</ele>
       <time>2013-10-22T16:05:27Z</time>
      </trkpt>
      <trkpt lat="43.701640" lon="5.095280">
       <ele>105</ele>
       <time>2013-10-22T16:06:15Z</time>
      </trkpt>
      <trkpt lat="43.701640" lon="5.095470">
       <ele>105</ele>
       <time>2013-10-22T16:06:18Z</time>
      </trkpt>
      <trkpt lat="43.701630" lon="5.095550">
       <ele>105</ele>
       <time>2013-10-22T16:06:19Z</time>
      </trkpt>
      <trkpt lat="43.701530" lon="5.095640">
       <ele>105</ele>
       <time>2013-10-22T16:06:22Z</time>
      </trkpt>
      <trkpt lat="43.701370" lon="5.095750">
       <ele>107</ele>
       <time>2013-10-22T16:06:25Z</time>
      </trkpt>
      <trkpt lat="43.701000" lon="5.095910">
       <ele>108</ele>
       <time>2013-10-22T16:06:33Z</time>
      </trkpt>
      <trkpt lat="43.700270" lon="5.096100">
       <ele>111</ele>
       <time>2013-10-22T16:06:49Z</time>
      </trkpt>
      <trkpt lat="43.700660" lon="5.096080">
       <ele>113</ele>
       <time>2013-10-22T16:06:57Z</time>
      </trkpt>
      <trkpt lat="43.701160" lon="5.095960">
       <ele>108</ele>
       <time>2013-10-22T16:07:07Z</time>
      </trkpt>
      <trkpt lat="43.701240" lon="5.095930">
       <ele>108</ele>
       <time>2013-10-22T16:07:09Z</time>
      </trkpt>
      <trkpt lat="43.701540" lon="5.095790">
       <ele>106</ele>
       <time>2013-10-22T16:07:16Z</time>
      </trkpt>
      <trkpt lat="43.701610" lon="5.095780">
       <ele>106</ele>
       <time>2013-10-22T16:07:17Z</time>
      </trkpt>
      <trkpt lat="43.701750" lon="5.095900">
       <ele>106</ele>
       <time>2013-10-22T16:07:21Z</time>
      </trkpt>
      <trkpt lat="43.701830" lon="5.095930">
       <ele>106</ele>
       <time>2013-10-22T16:07:22Z</time>
      </trkpt>
      <trkpt lat="43.701980" lon="5.096050">
       <ele>107</ele>
       <time>2013-10-22T16:07:26Z</time>
      </trkpt>
      <trkpt lat="43.702450" lon="5.096540">
       <ele>107</ele>
       <time>2013-10-22T16:07:38Z</time>
      </trkpt>
      <trkpt lat="43.702620" lon="5.096830">
       <ele>108</ele>
       <time>2013-10-22T16:07:44Z</time>
      </trkpt>
      <trkpt lat="43.703460" lon="5.098330">
       <ele>105</ele>
       <time>2013-10-22T16:08:12Z</time>
      </trkpt>
      <trkpt lat="43.704260" lon="5.099640">
       <ele>112</ele>
       <time>2013-10-22T16:08:38Z</time>
      </trkpt>
      <trkpt lat="43.706790" lon="5.103000">
       <ele>108</ele>
       <time>2013-10-22T16:09:51Z</time>
      </trkpt>
      <trkpt lat="43.706980" lon="5.103370">
       <ele>107</ele>
       <time>2013-10-22T16:09:57Z</time>
      </trkpt>
      <trkpt lat="43.707210" lon="5.103930">
       <ele>107</ele>
       <time>2013-10-22T16:10:07Z</time>
      </trkpt>
      <trkpt lat="43.707370" lon="5.104730">
       <ele>106</ele>
       <time>2013-10-22T16:10:19Z</time>
      </trkpt>
      <trkpt lat="43.707580" lon="5.107430">
       <ele>108</ele>
       <time>2013-10-22T16:11:00Z</time>
      </trkpt>
      <trkpt lat="43.707660" lon="5.108110">
       <ele>108</ele>
       <time>2013-10-22T16:11:11Z</time>
      </trkpt>
      <trkpt lat="43.708460" lon="5.113670">
       <ele>111</ele>
       <time>2013-10-22T16:12:35Z</time>
      </trkpt>
      <trkpt lat="43.708580" lon="5.114530">
       <ele>111</ele>
       <time>2013-10-22T16:12:49Z</time>
      </trkpt>
      <trkpt lat="43.708590" lon="5.114770">
       <ele>111</ele>
       <time>2013-10-22T16:12:52Z</time>
      </trkpt>
      <trkpt lat="43.708690" lon="5.115150">
       <ele>112</ele>
       <time>2013-10-22T16:12:58Z</time>
      </trkpt>
      <trkpt lat="43.708790" lon="5.115380">
       <ele>113</ele>
       <time>2013-10-22T16:13:02Z</time>
      </trkpt>
      <trkpt lat="43.708820" lon="5.115520">
       <ele>113</ele>
       <time>2013-10-22T16:13:04Z</time>
      </trkpt>
      <trkpt lat="43.708800" lon="5.115610">
       <ele>113</ele>
       <time>2013-10-22T16:13:06Z</time>
      </trkpt>
      <trkpt lat="43.708720" lon="5.115750">
       <ele>112</ele>
       <time>2013-10-22T16:13:09Z</time>
      </trkpt>
      <trkpt lat="43.708080" lon="5.116200">
       <ele>111</ele>
       <time>2013-10-22T16:13:23Z</time>
      </trkpt>
      <trkpt lat="43.707800" lon="5.116480">
       <ele>111</ele>
       <time>2013-10-22T16:13:31Z</time>
      </trkpt>
      <trkpt lat="43.707610" lon="5.116790">
       <ele>113</ele>
       <time>2013-10-22T16:13:37Z</time>
      </trkpt>
      <trkpt lat="43.707510" lon="5.117070">
       <ele>113</ele>
       <time>2013-10-22T16:13:41Z</time>
      </trkpt>
      <trkpt lat="43.707430" lon="5.117520">
       <ele>113</ele>
       <time>2013-10-22T16:13:48Z</time>
      </trkpt>
      <trkpt lat="43.707390" lon="5.118140">
       <ele>114</ele>
       <time>2013-10-22T16:13:58Z</time>
      </trkpt>
      <trkpt lat="43.706920" lon="5.128250">
       <ele>114</ele>
       <time>2013-10-22T16:16:30Z</time>
      </trkpt>
      <trkpt lat="43.706970" lon="5.129410">
       <ele>117</ele>
       <time>2013-10-22T16:16:47Z</time>
      </trkpt>
      <trkpt lat="43.706950" lon="5.130600">
       <ele>116</ele>
       <time>2013-10-22T16:17:05Z</time>
      </trkpt>
      <trkpt lat="43.706570" lon="5.133250">
       <ele>115</ele>
       <time>2013-10-22T16:17:45Z</time>
      </trkpt>
      <trkpt lat="43.706530" lon="5.133870">
       <ele>116</ele>
       <time>2013-10-22T16:17:55Z</time>
      </trkpt>
      <trkpt lat="43.706450" lon="5.134710">
       <ele>117</ele>
       <time>2013-10-22T16:18:07Z</time>
      </trkpt>
      <trkpt lat="43.705920" lon="5.137100">
       <ele>119</ele>
       <time>2013-10-22T16:18:45Z</time>
      </trkpt>
      <trkpt lat="43.705370" lon="5.141050">
       <ele>122</ele>
       <time>2013-10-22T16:19:45Z</time>
      </trkpt>
      <trkpt lat="43.705040" lon="5.142960">
       <ele>131</ele>
       <time>2013-10-22T16:20:14Z</time>
      </trkpt>
      <trkpt lat="43.704940" lon="5.144090">
       <ele>133</ele>
       <time>2013-10-22T16:20:32Z</time>
      </trkpt>
      <trkpt lat="43.704810" lon="5.145110">
       <ele>133</ele>
       <time>2013-10-22T16:20:47Z</time>
      </trkpt>
      <trkpt lat="43.704810" lon="5.145330">
       <ele>132</ele>
       <time>2013-10-22T16:20:50Z</time>
      </trkpt>
      <trkpt lat="43.704860" lon="5.145660">
       <ele>131</ele>
       <time>2013-10-22T16:20:55Z</time>
      </trkpt>
      <trkpt lat="43.705070" lon="5.146560">
       <ele>128</ele>
       <time>2013-10-22T16:21:10Z</time>
      </trkpt>
      <trkpt lat="43.705230" lon="5.147770">
       <ele>127</ele>
       <time>2013-10-22T16:21:28Z</time>
      </trkpt>
      <trkpt lat="43.705280" lon="5.148850">
       <ele>127</ele>
       <time>2013-10-22T16:21:44Z</time>
      </trkpt>
      <trkpt lat="43.705260" lon="5.150060">
       <ele>130</ele>
       <time>2013-10-22T16:22:02Z</time>
      </trkpt>
      <trkpt lat="43.704990" lon="5.151770">
       <ele>131</ele>
       <time>2013-10-22T16:22:29Z</time>
      </trkpt>
      <trkpt lat="43.704730" lon="5.154350">
       <ele>133</ele>
       <time>2013-10-22T16:23:08Z</time>
      </trkpt>
      <trkpt lat="43.704540" lon="5.155640">
       <ele>133</ele>
       <time>2013-10-22T16:23:27Z</time>
      </trkpt>
      <trkpt lat="43.704460" lon="5.155900">
       <ele>132</ele>
       <time>2013-10-22T16:23:32Z</time>
      </trkpt>
      <trkpt lat="43.704440" lon="5.155970">
       <ele>132</ele>
       <time>2013-10-22T16:23:33Z</time>
      </trkpt>
      <trkpt lat="43.704490" lon="5.156110">
       <ele>132</ele>
       <time>2013-10-22T16:23:35Z</time>
      </trkpt>
      <trkpt lat="43.704520" lon="5.156130">
       <ele>132</ele>
       <time>2013-10-22T16:23:36Z</time>
      </trkpt>
      <trkpt lat="43.704520" lon="5.156250">
       <ele>132</ele>
       <time>2013-10-22T16:23:38Z</time>
      </trkpt>
      <trkpt lat="43.704700" lon="5.157430">
       <ele>133</ele>
       <time>2013-10-22T16:23:56Z</time>
      </trkpt>
      <trkpt lat="43.704730" lon="5.157920">
       <ele>136</ele>
       <time>2013-10-22T16:24:03Z</time>
      </trkpt>
      <trkpt lat="43.704720" lon="5.158310">
       <ele>137</ele>
       <time>2013-10-22T16:24:09Z</time>
      </trkpt>
      <trkpt lat="43.704600" lon="5.158960">
       <ele>140</ele>
       <time>2013-10-22T16:24:19Z</time>
      </trkpt>
      <trkpt lat="43.704570" lon="5.159390">
       <ele>145</ele>
       <time>2013-10-22T16:24:25Z</time>
      </trkpt>
      <trkpt lat="43.704570" lon="5.159840">
       <ele>146</ele>
       <time>2013-10-22T16:24:32Z</time>
      </trkpt>
      <trkpt lat="43.704650" lon="5.160830">
       <ele>147</ele>
       <time>2013-10-22T16:24:47Z</time>
      </trkpt>
      <trkpt lat="43.704650" lon="5.161060">
       <ele>147</ele>
       <time>2013-10-22T16:24:51Z</time>
      </trkpt>
      <trkpt lat="43.704600" lon="5.161340">
       <ele>147</ele>
       <time>2013-10-22T16:24:55Z</time>
      </trkpt>
      <trkpt lat="43.704760" lon="5.162000">
       <ele>148</ele>
       <time>2013-10-22T16:25:05Z</time>
      </trkpt>
      <trkpt lat="43.704430" lon="5.162110">
       <ele>149</ele>
       <time>2013-10-22T16:25:12Z</time>
      </trkpt>
      <trkpt lat="43.704220" lon="5.162140">
       <ele>150</ele>
       <time>2013-10-22T16:25:17Z</time>
      </trkpt>
      <trkpt lat="43.704280" lon="5.162950">
       <ele>148</ele>
       <time>2013-10-22T16:25:29Z</time>
      </trkpt>
      <trkpt lat="43.704380" lon="5.163680">
       <ele>146</ele>
       <time>2013-10-22T16:25:40Z</time>
      </trkpt>
      <trkpt lat="43.704730" lon="5.166010">
       <ele>135</ele>
       <time>2013-10-22T16:26:16Z</time>
      </trkpt>
      <trkpt lat="43.705020" lon="5.167420">
       <ele>136</ele>
       <time>2013-10-22T16:26:38Z</time>
      </trkpt>
      <trkpt lat="43.705410" lon="5.172970">
       <ele>148</ele>
       <time>2013-10-22T16:28:01Z</time>
      </trkpt>
      <trkpt lat="43.705620" lon="5.175530">
       <ele>150</ele>
       <time>2013-10-22T16:28:40Z</time>
      </trkpt>
      <trkpt lat="43.705660" lon="5.175890">
       <ele>150</ele>
       <time>2013-10-22T16:28:45Z</time>
      </trkpt>
      <trkpt lat="43.705730" lon="5.176220">
       <ele>150</ele>
       <time>2013-10-22T16:28:51Z</time>
      </trkpt>
      <trkpt lat="43.705840" lon="5.176610">
       <ele>150</ele>
       <time>2013-10-22T16:28:57Z</time>
      </trkpt>
      <trkpt lat="43.706770" lon="5.178750">
       <ele>149</ele>
       <time>2013-10-22T16:29:34Z</time>
      </trkpt>
      <trkpt lat="43.707310" lon="5.180220">
       <ele>147</ele>
       <time>2013-10-22T16:29:59Z</time>
      </trkpt>
      <trkpt lat="43.707770" lon="5.181380">
       <ele>139</ele>
       <time>2013-10-22T16:30:19Z</time>
      </trkpt>
      <trkpt lat="43.708190" lon="5.182220">
       <ele>139</ele>
       <time>2013-10-22T16:30:34Z</time>
      </trkpt>
      <trkpt lat="43.708670" lon="5.182920">
       <ele>139</ele>
       <time>2013-10-22T16:30:49Z</time>
      </trkpt>
      <trkpt lat="43.708750" lon="5.183080">
       <ele>137</ele>
       <time>2013-10-22T16:30:51Z</time>
      </trkpt>
      <trkpt lat="43.708880" lon="5.183410">
       <ele>138</ele>
       <time>2013-10-22T16:30:57Z</time>
      </trkpt>
      <trkpt lat="43.709080" lon="5.184410">
       <ele>138</ele>
       <time>2013-10-22T16:31:13Z</time>
      </trkpt>
      <trkpt lat="43.709270" lon="5.185730">
       <ele>140</ele>
       <time>2013-10-22T16:31:33Z</time>
      </trkpt>
      <trkpt lat="43.709620" lon="5.187640">
       <ele>135</ele>
       <time>2013-10-22T16:32:02Z</time>
      </trkpt>
      <trkpt lat="43.709700" lon="5.188130">
       <ele>134</ele>
       <time>2013-10-22T16:32:10Z</time>
      </trkpt>
      <trkpt lat="43.709700" lon="5.188440">
       <ele>134</ele>
       <time>2013-10-22T16:32:15Z</time>
      </trkpt>
      <trkpt lat="43.709640" lon="5.189630">
       <ele>134</ele>
       <time>2013-10-22T16:32:32Z</time>
      </trkpt>
      <trkpt lat="43.709690" lon="5.190100">
       <ele>134</ele>
       <time>2013-10-22T16:32:40Z</time>
      </trkpt>
      <trkpt lat="43.710090" lon="5.192150">
       <ele>134</ele>
       <time>2013-10-22T16:33:11Z</time>
      </trkpt>
      <trkpt lat="43.710170" lon="5.193090">
       <ele>132</ele>
       <time>2013-10-22T16:33:26Z</time>
      </trkpt>
      <trkpt lat="43.710230" lon="5.194490">
       <ele>131</ele>
       <time>2013-10-22T16:33:47Z</time>
      </trkpt>
      <trkpt lat="43.710120" lon="5.194610">
       <ele>132</ele>
       <time>2013-10-22T16:33:49Z</time>
      </trkpt>
      <trkpt lat="43.710060" lon="5.194770">
       <ele>132</ele>
       <time>2013-10-22T16:33:52Z</time>
      </trkpt>
      <trkpt lat="43.710060" lon="5.194950">
       <ele>132</ele>
       <time>2013-10-22T16:33:55Z</time>
      </trkpt>
      <trkpt lat="43.710090" lon="5.195100">
       <ele>132</ele>
       <time>2013-10-22T16:33:57Z</time>
      </trkpt>
      <trkpt lat="43.710170" lon="5.195240">
       <ele>132</ele>
       <time>2013-10-22T16:34:00Z</time>
      </trkpt>
      <trkpt lat="43.710230" lon="5.195280">
       <ele>132</ele>
       <time>2013-10-22T16:34:01Z</time>
      </trkpt>
      <trkpt lat="43.710350" lon="5.195290">
       <ele>132</ele>
       <time>2013-10-22T16:34:04Z</time>
      </trkpt>
      <trkpt lat="43.710460" lon="5.195560">
       <ele>133</ele>
       <time>2013-10-22T16:34:08Z</time>
      </trkpt>
      <trkpt lat="43.710520" lon="5.195890">
       <ele>134</ele>
       <time>2013-10-22T16:34:14Z</time>
      </trkpt>
      <trkpt lat="43.710640" lon="5.196270">
       <ele>135</ele>
       <time>2013-10-22T16:34:20Z</time>
      </trkpt>
      <trkpt lat="43.710860" lon="5.196760">
       <ele>137</ele>
       <time>2013-10-22T16:34:28Z</time>
      </trkpt>
      <trkpt lat="43.711200" lon="5.197330">
       <ele>139</ele>
       <time>2013-10-22T16:34:39Z</time>
      </trkpt>
      <trkpt lat="43.711490" lon="5.197700">
       <ele>143</ele>
       <time>2013-10-22T16:34:48Z</time>
      </trkpt>
      <trkpt lat="43.711860" lon="5.197970">
       <ele>143</ele>
       <time>2013-10-22T16:34:56Z</time>
      </trkpt>
      <trkpt lat="43.712280" lon="5.198250">
       <ele>145</ele>
       <time>2013-10-22T16:35:06Z</time>
      </trkpt>
      <trkpt lat="43.712440" lon="5.198380">
       <ele>144</ele>
       <time>2013-10-22T16:35:10Z</time>
      </trkpt>
      <trkpt lat="43.712630" lon="5.198580">
       <ele>146</ele>
       <time>2013-10-22T16:35:15Z</time>
      </trkpt>
      <trkpt lat="43.712870" lon="5.198920">
       <ele>144</ele>
       <time>2013-10-22T16:35:22Z</time>
      </trkpt>
      <trkpt lat="43.713610" lon="5.200330">
       <ele>136</ele>
       <time>2013-10-22T16:35:48Z</time>
      </trkpt>
      <trkpt lat="43.713840" lon="5.200810">
       <ele>136</ele>
       <time>2013-10-22T16:35:57Z</time>
      </trkpt>
      <trkpt lat="43.714080" lon="5.201520">
       <ele>135</ele>
       <time>2013-10-22T16:36:08Z</time>
      </trkpt>
      <trkpt lat="43.714710" lon="5.204370">
       <ele>128</ele>
       <time>2013-10-22T16:36:53Z</time>
      </trkpt>
      <trkpt lat="43.715460" lon="5.207960">
       <ele>125</ele>
       <time>2013-10-22T16:37:49Z</time>
      </trkpt>
      <trkpt lat="43.715540" lon="5.208590">
       <ele>126</ele>
       <time>2013-10-22T16:37:59Z</time>
      </trkpt>
      <trkpt lat="43.715590" lon="5.209160">
       <ele>127</ele>
       <time>2013-10-22T16:38:07Z</time>
      </trkpt>
      <trkpt lat="43.715870" lon="5.214900">
       <ele>127</ele>
       <time>2013-10-22T16:39:33Z</time>
      </trkpt>
      <trkpt lat="43.716570" lon="5.220810">
       <ele>125</ele>
       <time>2013-10-22T16:41:03Z</time>
      </trkpt>
      <trkpt lat="43.716780" lon="5.223600">
       <ele>123</ele>
       <time>2013-10-22T16:41:45Z</time>
      </trkpt>
      <trkpt lat="43.716780" lon="5.223820">
       <ele>123</ele>
       <time>2013-10-22T16:41:49Z</time>
      </trkpt>
      <trkpt lat="43.716750" lon="5.224030">
       <ele>123</ele>
       <time>2013-10-22T16:41:52Z</time>
      </trkpt>
      <trkpt lat="43.716690" lon="5.224120">
       <ele>123</ele>
       <time>2013-10-22T16:41:54Z</time>
      </trkpt>
      <trkpt lat="43.716670" lon="5.224240">
       <ele>123</ele>
       <time>2013-10-22T16:41:55Z</time>
      </trkpt>
      <trkpt lat="43.716700" lon="5.224340">
       <ele>124</ele>
       <time>2013-10-22T16:41:57Z</time>
      </trkpt>
      <trkpt lat="43.716780" lon="5.224410">
       <ele>124</ele>
       <time>2013-10-22T16:41:59Z</time>
      </trkpt>
      <trkpt lat="43.716830" lon="5.224840">
       <ele>124</ele>
       <time>2013-10-22T16:42:06Z</time>
      </trkpt>
      <trkpt lat="43.716850" lon="5.225300">
       <ele>125</ele>
       <time>2013-10-22T16:42:12Z</time>
      </trkpt>
      <trkpt lat="43.717010" lon="5.227820">
       <ele>126</ele>
       <time>2013-10-22T16:42:50Z</time>
      </trkpt>
      <trkpt lat="43.717200" lon="5.229080">
       <ele>128</ele>
       <time>2013-10-22T16:43:10Z</time>
      </trkpt>
      <trkpt lat="43.717940" lon="5.234920">
       <ele>127</ele>
       <time>2013-10-22T16:44:38Z</time>
      </trkpt>
      <trkpt lat="43.718410" lon="5.237330">
       <ele>127</ele>
       <time>2013-10-22T16:45:16Z</time>
      </trkpt>
      <trkpt lat="43.719130" lon="5.240090">
       <ele>128</ele>
       <time>2013-10-22T16:46:00Z</time>
      </trkpt>
      <trkpt lat="43.719470" lon="5.241700">
       <ele>127</ele>
       <time>2013-10-22T16:46:25Z</time>
      </trkpt>
      <trkpt lat="43.719500" lon="5.242160">
       <ele>128</ele>
       <time>2013-10-22T16:46:32Z</time>
      </trkpt>
      <trkpt lat="43.719540" lon="5.243110">
       <ele>131</ele>
       <time>2013-10-22T16:46:46Z</time>
      </trkpt>
      <trkpt lat="43.719520" lon="5.243950">
       <ele>132</ele>
       <time>2013-10-22T16:46:59Z</time>
      </trkpt>
      <trkpt lat="43.719630" lon="5.245100">
       <ele>133</ele>
       <time>2013-10-22T16:47:16Z</time>
      </trkpt>
      <trkpt lat="43.719780" lon="5.247330">
       <ele>131</ele>
       <time>2013-10-22T16:47:50Z</time>
      </trkpt>
      <trkpt lat="43.719830" lon="5.249230">
       <ele>131</ele>
       <time>2013-10-22T16:48:18Z</time>
      </trkpt>
      <trkpt lat="43.719970" lon="5.252460">
       <ele>135</ele>
       <time>2013-10-22T16:49:07Z</time>
      </trkpt>
      <trkpt lat="43.720100" lon="5.255970">
       <ele>133</ele>
       <time>2013-10-22T16:49:59Z</time>
      </trkpt>
      <trkpt lat="43.720210" lon="5.258270">
       <ele>131</ele>
       <time>2013-10-22T16:50:34Z</time>
      </trkpt>
      <trkpt lat="43.720240" lon="5.259990">
       <ele>131</ele>
       <time>2013-10-22T16:51:00Z</time>
      </trkpt>
      <trkpt lat="43.720240" lon="5.265100">
       <ele>146</ele>
       <time>2013-10-22T16:52:16Z</time>
      </trkpt>
      <trkpt lat="43.720210" lon="5.265510">
       <ele>147</ele>
       <time>2013-10-22T16:52:22Z</time>
      </trkpt>
      <trkpt lat="43.720100" lon="5.265770">
       <ele>149</ele>
       <time>2013-10-22T16:52:27Z</time>
      </trkpt>
      <trkpt lat="43.719890" lon="5.266080">
       <ele>150</ele>
       <time>2013-10-22T16:52:33Z</time>
      </trkpt>
      <trkpt lat="43.720710" lon="5.269710">
       <ele>148</ele>
       <time>2013-10-22T16:53:30Z</time>
      </trkpt>
      <trkpt lat="43.721400" lon="5.271710">
       <ele>143</ele>
       <time>2013-10-22T16:54:04Z</time>
      </trkpt>
      <trkpt lat="43.721640" lon="5.272750">
       <ele>141</ele>
       <time>2013-10-22T16:54:20Z</time>
      </trkpt>
      <trkpt lat="43.721770" lon="5.273990">
       <ele>145</ele>
       <time>2013-10-22T16:54:39Z</time>
      </trkpt>
      <trkpt lat="43.721950" lon="5.275420">
       <ele>142</ele>
       <time>2013-10-22T16:55:00Z</time>
      </trkpt>
      <trkpt lat="43.722220" lon="5.277470">
       <ele>143</ele>
       <time>2013-10-22T16:55:32Z</time>
      </trkpt>
      <trkpt lat="43.722380" lon="5.278470">
       <ele>143</ele>
       <time>2013-10-22T16:55:47Z</time>
      </trkpt>
      <trkpt lat="43.722540" lon="5.279710">
       <ele>142</ele>
       <time>2013-10-22T16:56:06Z</time>
      </trkpt>
      <trkpt lat="43.722560" lon="5.280050">
       <ele>143</ele>
       <time>2013-10-22T16:56:11Z</time>
      </trkpt>
      <trkpt lat="43.722540" lon="5.280440">
       <ele>143</ele>
       <time>2013-10-22T16:56:17Z</time>
      </trkpt>
      <trkpt lat="43.722480" lon="5.280860">
       <ele>143</ele>
       <time>2013-10-22T16:56:23Z</time>
      </trkpt>
      <trkpt lat="43.721230" lon="5.286410">
       <ele>142</ele>
       <time>2013-10-22T16:57:50Z</time>
      </trkpt>
      <trkpt lat="43.720890" lon="5.288360">
       <ele>144</ele>
       <time>2013-10-22T16:58:20Z</time>
      </trkpt>
      <trkpt lat="43.720690" lon="5.289850">
       <ele>145</ele>
       <time>2013-10-22T16:58:43Z</time>
      </trkpt>
      <trkpt lat="43.720710" lon="5.290490">
       <ele>142</ele>
       <time>2013-10-22T16:58:53Z</time>
      </trkpt>
      <trkpt lat="43.720770" lon="5.291020">
       <ele>143</ele>
       <time>2013-10-22T16:59:01Z</time>
      </trkpt>
      <trkpt lat="43.721560" lon="5.294150">
       <ele>139</ele>
       <time>2013-10-22T16:59:50Z</time>
      </trkpt>
      <trkpt lat="43.722350" lon="5.297400">
       <ele>142</ele>
       <time>2013-10-22T17:00:42Z</time>
      </trkpt>
      <trkpt lat="43.722430" lon="5.297910">
       <ele>139</ele>
       <time>2013-10-22T17:00:50Z</time>
      </trkpt>
      <trkpt lat="43.722480" lon="5.298460">
       <ele>141</ele>
       <time>2013-10-22T17:00:58Z</time>
      </trkpt>
      <trkpt lat="43.722460" lon="5.298910">
       <ele>143</ele>
       <time>2013-10-22T17:01:05Z</time>
      </trkpt>
      <trkpt lat="43.722370" lon="5.299490">
       <ele>145</ele>
       <time>2013-10-22T17:01:14Z</time>
      </trkpt>
      <trkpt lat="43.722270" lon="5.299860">
       <ele>149</ele>
       <time>2013-10-22T17:01:20Z</time>
      </trkpt>
      <trkpt lat="43.721710" lon="5.301860">
       <ele>149</ele>
       <time>2013-10-22T17:01:52Z</time>
      </trkpt>
      <trkpt lat="43.721660" lon="5.301960">
       <ele>149</ele>
       <time>2013-10-22T17:01:53Z</time>
      </trkpt>
      <trkpt lat="43.721480" lon="5.302170">
       <ele>151</ele>
       <time>2013-10-22T17:01:58Z</time>
      </trkpt>
      <trkpt lat="43.721430" lon="5.302250">
       <ele>151</ele>
       <time>2013-10-22T17:02:00Z</time>
      </trkpt>
      <trkpt lat="43.721400" lon="5.302370">
       <ele>151</ele>
       <time>2013-10-22T17:02:02Z</time>
      </trkpt>
      <trkpt lat="43.721390" lon="5.302490">
       <ele>151</ele>
       <time>2013-10-22T17:02:04Z</time>
      </trkpt>
      <trkpt lat="43.721400" lon="5.302650">
       <ele>151</ele>
       <time>2013-10-22T17:02:06Z</time>
      </trkpt>
      <trkpt lat="43.721450" lon="5.302810">
       <ele>151</ele>
       <time>2013-10-22T17:02:09Z</time>
      </trkpt>
      <trkpt lat="43.721500" lon="5.302900">
       <ele>151</ele>
       <time>2013-10-22T17:02:10Z</time>
      </trkpt>
      <trkpt lat="43.721370" lon="5.302930">
       <ele>151</ele>
       <time>2013-10-22T17:02:13Z</time>
      </trkpt>
      <trkpt lat="43.721270" lon="5.302930">
       <ele>151</ele>
       <time>2013-10-22T17:02:15Z</time>
      </trkpt>
      <trkpt lat="43.721050" lon="5.302890">
       <ele>152</ele>
       <time>2013-10-22T17:02:20Z</time>
      </trkpt>
      <trkpt lat="43.720870" lon="5.302990">
       <ele>152</ele>
       <time>2013-10-22T17:02:24Z</time>
      </trkpt>
      <trkpt lat="43.719910" lon="5.304420">
       <ele>152</ele>
       <time>2013-10-22T17:02:53Z</time>
      </trkpt>
      <trkpt lat="43.718960" lon="5.305740">
       <ele>150</ele>
       <time>2013-10-22T17:03:21Z</time>
      </trkpt>
      <trkpt lat="43.718680" lon="5.306260">
       <ele>149</ele>
       <time>2013-10-22T17:03:31Z</time>
      </trkpt>
      <trkpt lat="43.718340" lon="5.307280">
       <ele>149</ele>
       <time>2013-10-22T17:03:48Z</time>
      </trkpt>
      <trkpt lat="43.717990" lon="5.308130">
       <ele>151</ele>
       <time>2013-10-22T17:04:02Z</time>
      </trkpt>
      <trkpt lat="43.717620" lon="5.308660">
       <ele>153</ele>
       <time>2013-10-22T17:04:13Z</time>
      </trkpt>
      <trkpt lat="43.716460" lon="5.310230">
       <ele>158</ele>
       <time>2013-10-22T17:04:47Z</time>
      </trkpt>
      <trkpt lat="43.716410" lon="5.310420">
       <ele>159</ele>
       <time>2013-10-22T17:04:50Z</time>
      </trkpt>
      <trkpt lat="43.716380" lon="5.310760">
       <ele>160</ele>
       <time>2013-10-22T17:04:55Z</time>
      </trkpt>
      <trkpt lat="43.716330" lon="5.310910">
       <ele>160</ele>
       <time>2013-10-22T17:04:58Z</time>
      </trkpt>
      <trkpt lat="43.716300" lon="5.311260">
       <ele>161</ele>
       <time>2013-10-22T17:05:03Z</time>
      </trkpt>
      <trkpt lat="43.716330" lon="5.311620">
       <ele>160</ele>
       <time>2013-10-22T17:05:08Z</time>
      </trkpt>
      <trkpt lat="43.716430" lon="5.311750">
       <ele>160</ele>
       <time>2013-10-22T17:05:11Z</time>
      </trkpt>
      <trkpt lat="43.716480" lon="5.311920">
       <ele>158</ele>
       <time>2013-10-22T17:05:14Z</time>
      </trkpt>
      <trkpt lat="43.716490" lon="5.312120">
       <ele>157</ele>
       <time>2013-10-22T17:05:17Z</time>
      </trkpt>
      <trkpt lat="43.716300" lon="5.313630">
       <ele>148</ele>
       <time>2013-10-22T17:05:40Z</time>
      </trkpt>
      <trkpt lat="43.715350" lon="5.315420">
       <ele>153</ele>
       <time>2013-10-22T17:06:13Z</time>
      </trkpt>
      <trkpt lat="43.715300" lon="5.315560">
       <ele>153</ele>
       <time>2013-10-22T17:06:15Z</time>
      </trkpt>
      <trkpt lat="43.715300" lon="5.315800">
       <ele>153</ele>
       <time>2013-10-22T17:06:19Z</time>
      </trkpt>
      <trkpt lat="43.715690" lon="5.316740">
       <ele>152</ele>
       <time>2013-10-22T17:06:35Z</time>
      </trkpt>
      <trkpt lat="43.715800" lon="5.317470">
       <ele>151</ele>
       <time>2013-10-22T17:06:46Z</time>
      </trkpt>
      <trkpt lat="43.716040" lon="5.320400">
       <ele>147</ele>
       <time>2013-10-22T17:07:31Z</time>
      </trkpt>
      <trkpt lat="43.715980" lon="5.320710">
       <ele>147</ele>
       <time>2013-10-22T17:07:35Z</time>
      </trkpt>
      <trkpt lat="43.715290" lon="5.322360">
       <ele>152</ele>
       <time>2013-10-22T17:08:04Z</time>
      </trkpt>
      <trkpt lat="43.715110" lon="5.322850">
       <ele>153</ele>
       <time>2013-10-22T17:08:12Z</time>
      </trkpt>
      <trkpt lat="43.715080" lon="5.323290">
       <ele>154</ele>
       <time>2013-10-22T17:08:19Z</time>
      </trkpt>
      <trkpt lat="43.715290" lon="5.324460">
       <ele>157</ele>
       <time>2013-10-22T17:08:37Z</time>
      </trkpt>
      <trkpt lat="43.715430" lon="5.325170">
       <ele>154</ele>
       <time>2013-10-22T17:08:48Z</time>
      </trkpt>
      <trkpt lat="43.715450" lon="5.325550">
       <ele>154</ele>
       <time>2013-10-22T17:08:54Z</time>
      </trkpt>
      <trkpt lat="43.715320" lon="5.325960">
       <ele>157</ele>
       <time>2013-10-22T17:09:00Z</time>
      </trkpt>
      <trkpt lat="43.715010" lon="5.326740">
       <ele>157</ele>
       <time>2013-10-22T17:09:14Z</time>
      </trkpt>
      <trkpt lat="43.714930" lon="5.327210">
       <ele>156</ele>
       <time>2013-10-22T17:09:21Z</time>
      </trkpt>
      <trkpt lat="43.714900" lon="5.329040">
       <ele>154</ele>
       <time>2013-10-22T17:09:48Z</time>
      </trkpt>
      <trkpt lat="43.714880" lon="5.329640">
       <ele>155</ele>
       <time>2013-10-22T17:09:57Z</time>
      </trkpt>
      <trkpt lat="43.714820" lon="5.330040">
       <ele>157</ele>
       <time>2013-10-22T17:10:04Z</time>
      </trkpt>
      <trkpt lat="43.714690" lon="5.330760">
       <ele>156</ele>
       <time>2013-10-22T17:10:15Z</time>
      </trkpt>
      <trkpt lat="43.714320" lon="5.332570">
       <ele>158</ele>
       <time>2013-10-22T17:10:43Z</time>
      </trkpt>
      <trkpt lat="43.714290" lon="5.333870">
       <ele>159</ele>
       <time>2013-10-22T17:11:02Z</time>
      </trkpt>
      <trkpt lat="43.714320" lon="5.335890">
       <ele>154</ele>
       <time>2013-10-22T17:11:33Z</time>
      </trkpt>
      <trkpt lat="43.714390" lon="5.336380">
       <ele>153</ele>
       <time>2013-10-22T17:11:40Z</time>
      </trkpt>
      <trkpt lat="43.714640" lon="5.337430">
       <ele>152</ele>
       <time>2013-10-22T17:11:57Z</time>
      </trkpt>
      <trkpt lat="43.714720" lon="5.338760">
       <ele>154</ele>
       <time>2013-10-22T17:12:17Z</time>
      </trkpt>
      <trkpt lat="43.714760" lon="5.339560">
       <ele>153</ele>
       <time>2013-10-22T17:12:29Z</time>
      </trkpt>
      <trkpt lat="43.714690" lon="5.340150">
       <ele>152</ele>
       <time>2013-10-22T17:12:38Z</time>
      </trkpt>
      <trkpt lat="43.714640" lon="5.340380">
       <ele>152</ele>
       <time>2013-10-22T17:12:41Z</time>
      </trkpt>
      <trkpt lat="43.714400" lon="5.341140">
       <ele>153</ele>
       <time>2013-10-22T17:12:54Z</time>
      </trkpt>
      <trkpt lat="43.713820" lon="5.342630">
       <ele>153</ele>
       <time>2013-10-22T17:13:19Z</time>
      </trkpt>
      <trkpt lat="43.713790" lon="5.342850">
       <ele>152</ele>
       <time>2013-10-22T17:13:22Z</time>
      </trkpt>
      <trkpt lat="43.713790" lon="5.343050">
       <ele>151</ele>
       <time>2013-10-22T17:13:25Z</time>
      </trkpt>
      <trkpt lat="43.713550" lon="5.343580">
       <ele>152</ele>
       <time>2013-10-22T17:13:35Z</time>
      </trkpt>
      <trkpt lat="43.713360" lon="5.344150">
       <ele>153</ele>
       <time>2013-10-22T17:13:44Z</time>
      </trkpt>
      <trkpt lat="43.713240" lon="5.344590">
       <ele>151</ele>
       <time>2013-10-22T17:13:51Z</time>
      </trkpt>
      <trkpt lat="43.713160" lon="5.344970">
       <ele>153</ele>
       <time>2013-10-22T17:13:57Z</time>
      </trkpt>
      <trkpt lat="43.713130" lon="5.346720">
       <ele>149</ele>
       <time>2013-10-22T17:14:23Z</time>
      </trkpt>
      <trkpt lat="43.713050" lon="5.347650">
       <ele>149</ele>
       <time>2013-10-22T17:14:37Z</time>
      </trkpt>
      <trkpt lat="43.712950" lon="5.348200">
       <ele>148</ele>
       <time>2013-10-22T17:14:46Z</time>
      </trkpt>
      <trkpt lat="43.712630" lon="5.349530">
       <ele>147</ele>
       <time>2013-10-22T17:15:07Z</time>
      </trkpt>
      <trkpt lat="43.711990" lon="5.351950">
       <ele>155</ele>
       <time>2013-10-22T17:15:46Z</time>
      </trkpt>
      <trkpt lat="43.711830" lon="5.352660">
       <ele>154</ele>
       <time>2013-10-22T17:15:57Z</time>
      </trkpt>
      <trkpt lat="43.711470" lon="5.354660">
       <ele>157</ele>
       <time>2013-10-22T17:16:28Z</time>
      </trkpt>
      <trkpt lat="43.711180" lon="5.356660">
       <ele>157</ele>
       <time>2013-10-22T17:16:58Z</time>
      </trkpt>
      <trkpt lat="43.711120" lon="5.357200">
       <ele>156</ele>
       <time>2013-10-22T17:17:06Z</time>
      </trkpt>
      <trkpt lat="43.711070" lon="5.357660">
       <ele>155</ele>
       <time>2013-10-22T17:17:13Z</time>
      </trkpt>
      <trkpt lat="43.711070" lon="5.358120">
       <ele>156</ele>
       <time>2013-10-22T17:17:20Z</time>
      </trkpt>
      <trkpt lat="43.711120" lon="5.358830">
       <ele>156</ele>
       <time>2013-10-22T17:17:31Z</time>
      </trkpt>
      <trkpt lat="43.711100" lon="5.359200">
       <ele>155</ele>
       <time>2013-10-22T17:17:36Z</time>
      </trkpt>
      <trkpt lat="43.711040" lon="5.359630">
       <ele>155</ele>
       <time>2013-10-22T17:17:43Z</time>
      </trkpt>
      <trkpt lat="43.710930" lon="5.360020">
       <ele>154</ele>
       <time>2013-10-22T17:17:49Z</time>
      </trkpt>
      <trkpt lat="43.710720" lon="5.360460">
       <ele>151</ele>
       <time>2013-10-22T17:17:57Z</time>
      </trkpt>
      <trkpt lat="43.710350" lon="5.361100">
       <ele>150</ele>
       <time>2013-10-22T17:18:09Z</time>
      </trkpt>
      <trkpt lat="43.710220" lon="5.361260">
       <ele>148</ele>
       <time>2013-10-22T17:18:13Z</time>
      </trkpt>
      <trkpt lat="43.709980" lon="5.361480">
       <ele>149</ele>
       <time>2013-10-22T17:18:19Z</time>
      </trkpt>
      <trkpt lat="43.708770" lon="5.362260">
       <ele>149</ele>
       <time>2013-10-22T17:18:47Z</time>
      </trkpt>
      <trkpt lat="43.707920" lon="5.362920">
       <ele>151</ele>
       <time>2013-10-22T17:19:07Z</time>
      </trkpt>
      <trkpt lat="43.708050" lon="5.363170">
       <ele>151</ele>
       <time>2013-10-22T17:19:12Z</time>
      </trkpt>
      <trkpt lat="43.708140" lon="5.363300">
       <ele>150</ele>
       <time>2013-10-22T17:19:14Z</time>
      </trkpt>
      <trkpt lat="43.708560" lon="5.363810">
       <ele>146</ele>
       <time>2013-10-22T17:19:26Z</time>
      </trkpt>
      <trkpt lat="43.708880" lon="5.364120">
       <ele>146</ele>
       <time>2013-10-22T17:19:34Z</time>
      </trkpt>
      <trkpt lat="43.709030" lon="5.364230">
       <ele>147</ele>
       <time>2013-10-22T17:19:37Z</time>
      </trkpt>
      <trkpt lat="43.709410" lon="5.364460">
       <ele>148</ele>
       <time>2013-10-22T17:19:46Z</time>
      </trkpt>
      <trkpt lat="43.712310" lon="5.365980">
       <ele>143</ele>
       <time>2013-10-22T17:20:50Z</time>
      </trkpt>
      <trkpt lat="43.712470" lon="5.366090">
       <ele>146</ele>
       <time>2013-10-22T17:20:54Z</time>
      </trkpt>
      <trkpt lat="43.712870" lon="5.366530">
       <ele>147</ele>
       <time>2013-10-22T17:21:05Z</time>
      </trkpt>
      <trkpt lat="43.713210" lon="5.367170">
       <ele>148</ele>
       <time>2013-10-22T17:21:17Z</time>
      </trkpt>
      <trkpt lat="43.713570" lon="5.368090">
       <ele>148</ele>
       <time>2013-10-22T17:21:32Z</time>
      </trkpt>
      <trkpt lat="43.715640" lon="5.373990">
       <ele>148</ele>
       <time>2013-10-22T17:23:11Z</time>
      </trkpt>
      <trkpt lat="43.715830" lon="5.374670">
       <ele>149</ele>
       <time>2013-10-22T17:23:21Z</time>
      </trkpt>
      <trkpt lat="43.715960" lon="5.374980">
       <ele>150</ele>
       <time>2013-10-22T17:23:27Z</time>
      </trkpt>
      <trkpt lat="43.716200" lon="5.375480">
       <ele>151</ele>
       <time>2013-10-22T17:23:36Z</time>
      </trkpt>
      <trkpt lat="43.714890" lon="5.375450">
       <ele>149</ele>
       <time>2013-10-22T17:24:03Z</time>
      </trkpt>
      <trkpt lat="43.714850" lon="5.376060">
       <ele>149</ele>
       <time>2013-10-22T17:24:12Z</time>
      </trkpt>
      <trkpt lat="43.714850" lon="5.376480">
       <ele>149</ele>
       <time>2013-10-22T17:24:18Z</time>
      </trkpt>
      <trkpt lat="43.714800" lon="5.377120">
       <ele>148</ele>
       <time>2013-10-22T17:24:28Z</time>
      </trkpt>
      <trkpt lat="43.714770" lon="5.377450">
       <ele>147</ele>
       <time>2013-10-22T17:24:33Z</time>
      </trkpt>
      <trkpt lat="43.714640" lon="5.378410">
       <ele>145</ele>
       <time>2013-10-22T17:24:48Z</time>
      </trkpt>
      <trkpt lat="43.714610" lon="5.378560">
       <ele>145</ele>
       <time>2013-10-22T17:24:50Z</time>
      </trkpt>
      <trkpt lat="43.714470" lon="5.378990">
       <ele>146</ele>
       <time>2013-10-22T17:24:57Z</time>
      </trkpt>
      <trkpt lat="43.714340" lon="5.379550">
       <ele>147</ele>
       <time>2013-10-22T17:25:06Z</time>
      </trkpt>
      <trkpt lat="43.714190" lon="5.379940">
       <ele>148</ele>
       <time>2013-10-22T17:25:13Z</time>
      </trkpt>
      <trkpt lat="43.714000" lon="5.380360">
       <ele>149</ele>
       <time>2013-10-22T17:25:20Z</time>
      </trkpt>
      <trkpt lat="43.713950" lon="5.380420">
       <ele>148</ele>
       <time>2013-10-22T17:25:21Z</time>
      </trkpt>
      <trkpt lat="43.714020" lon="5.380530">
       <ele>148</ele>
       <time>2013-10-22T17:25:24Z</time>
      </trkpt>
      <trkpt lat="43.714930" lon="5.381580">
       <ele>150</ele>
       <time>2013-10-22T17:25:48Z</time>
      </trkpt>
      <trkpt lat="43.714760" lon="5.381780">
       <ele>149</ele>
       <time>2013-10-22T17:25:53Z</time>
      </trkpt>
      <trkpt lat="43.714350" lon="5.382560">
       <ele>147</ele>
       <time>2013-10-22T17:26:07Z</time>
      </trkpt>
      <trkpt lat="43.714240" lon="5.382830">
       <ele>148</ele>
       <time>2013-10-22T17:26:12Z</time>
      </trkpt>
      <trkpt lat="43.713920" lon="5.384000">
       <ele>147</ele>
       <time>2013-10-22T17:26:31Z</time>
      </trkpt>
      <trkpt lat="43.713690" lon="5.384620">
       <ele>149</ele>
       <time>2013-10-22T17:26:41Z</time>
      </trkpt>
      <trkpt lat="43.713550" lon="5.384860">
       <ele>149</ele>
       <time>2013-10-22T17:26:46Z</time>
      </trkpt>
      <trkpt lat="43.712950" lon="5.385410">
       <ele>151</ele>
       <time>2013-10-22T17:27:01Z</time>
      </trkpt>
      <trkpt lat="43.712790" lon="5.385680">
       <ele>152</ele>
       <time>2013-10-22T17:27:06Z</time>
      </trkpt>
      <trkpt lat="43.712440" lon="5.387000">
       <ele>153</ele>
       <time>2013-10-22T17:27:27Z</time>
      </trkpt>
      <trkpt lat="43.712150" lon="5.387790">
       <ele>154</ele>
       <time>2013-10-22T17:27:40Z</time>
      </trkpt>
      <trkpt lat="43.711390" lon="5.391190">
       <ele>148</ele>
       <time>2013-10-22T17:28:34Z</time>
      </trkpt>
      <trkpt lat="43.711230" lon="5.391680">
       <ele>149</ele>
       <time>2013-10-22T17:28:42Z</time>
      </trkpt>
      <trkpt lat="43.711100" lon="5.391850">
       <ele>149</ele>
       <time>2013-10-22T17:28:45Z</time>
      </trkpt>
      <trkpt lat="43.710490" lon="5.392370">
       <ele>150</ele>
       <time>2013-10-22T17:29:00Z</time>
      </trkpt>
      <trkpt lat="43.710300" lon="5.392630">
       <ele>150</ele>
       <time>2013-10-22T17:29:06Z</time>
      </trkpt>
      <trkpt lat="43.710170" lon="5.393000">
       <ele>151</ele>
       <time>2013-10-22T17:29:12Z</time>
      </trkpt>
      <trkpt lat="43.710140" lon="5.393270">
       <ele>151</ele>
       <time>2013-10-22T17:29:16Z</time>
      </trkpt>
      <trkpt lat="43.710150" lon="5.393620">
       <ele>152</ele>
       <time>2013-10-22T17:29:21Z</time>
      </trkpt>
      <trkpt lat="43.712680" lon="5.408430">
       <ele>161</ele>
       <time>2013-10-22T17:33:09Z</time>
      </trkpt>
      <trkpt lat="43.713130" lon="5.410380">
       <ele>161</ele>
       <time>2013-10-22T17:33:40Z</time>
      </trkpt>
      <trkpt lat="43.713210" lon="5.410580">
       <ele>161</ele>
       <time>2013-10-22T17:33:43Z</time>
      </trkpt>
      <trkpt lat="43.713400" lon="5.410760">
       <ele>162</ele>
       <time>2013-10-22T17:33:48Z</time>
      </trkpt>
      <trkpt lat="43.713450" lon="5.410840">
       <ele>162</ele>
       <time>2013-10-22T17:33:50Z</time>
      </trkpt>
      <trkpt lat="43.713470" lon="5.411420">
       <ele>163</ele>
       <time>2013-10-22T17:33:58Z</time>
      </trkpt>
      <trkpt lat="43.713490" lon="5.411590">
       <ele>164</ele>
       <time>2013-10-22T17:34:01Z</time>
      </trkpt>
      <trkpt lat="43.713680" lon="5.412300">
       <ele>165</ele>
       <time>2013-10-22T17:34:12Z</time>
      </trkpt>
      <trkpt lat="43.713810" lon="5.412670">
       <ele>167</ele>
       <time>2013-10-22T17:34:19Z</time>
      </trkpt>
      <trkpt lat="43.713790" lon="5.412800">
       <ele>167</ele>
       <time>2013-10-22T17:34:21Z</time>
      </trkpt>
      <trkpt lat="43.713760" lon="5.412920">
       <ele>167</ele>
       <time>2013-10-22T17:34:22Z</time>
      </trkpt>
      <trkpt lat="43.713680" lon="5.413360">
       <ele>166</ele>
       <time>2013-10-22T17:34:29Z</time>
      </trkpt>
      <trkpt lat="43.713570" lon="5.413730">
       <ele>166</ele>
       <time>2013-10-22T17:34:35Z</time>
      </trkpt>
      <trkpt lat="43.713120" lon="5.415490">
       <ele>162</ele>
       <time>2013-10-22T17:35:03Z</time>
      </trkpt>
      <trkpt lat="43.711940" lon="5.419320">
       <ele>164</ele>
       <time>2013-10-22T17:36:06Z</time>
      </trkpt>
      <trkpt lat="43.711830" lon="5.419690">
       <ele>164</ele>
       <time>2013-10-22T17:36:12Z</time>
      </trkpt>
      <trkpt lat="43.711680" lon="5.419880">
       <ele>163</ele>
       <time>2013-10-22T17:36:16Z</time>
      </trkpt>
      <trkpt lat="43.711620" lon="5.419900">
       <ele>163</ele>
       <time>2013-10-22T17:36:17Z</time>
      </trkpt>
      <trkpt lat="43.711570" lon="5.419950">
       <ele>163</ele>
       <time>2013-10-22T17:36:18Z</time>
      </trkpt>
      <trkpt lat="43.711540" lon="5.420060">
       <ele>163</ele>
       <time>2013-10-22T17:36:20Z</time>
      </trkpt>
      <trkpt lat="43.711550" lon="5.420180">
       <ele>162</ele>
       <time>2013-10-22T17:36:22Z</time>
      </trkpt>
      <trkpt lat="43.711570" lon="5.420250">
       <ele>162</ele>
       <time>2013-10-22T17:36:23Z</time>
      </trkpt>
      <trkpt lat="43.711630" lon="5.420300">
       <ele>162</ele>
       <time>2013-10-22T17:36:25Z</time>
      </trkpt>
      <trkpt lat="43.711670" lon="5.420510">
       <ele>162</ele>
       <time>2013-10-22T17:36:28Z</time>
      </trkpt>
      <trkpt lat="43.711600" lon="5.420870">
       <ele>162</ele>
       <time>2013-10-22T17:36:33Z</time>
      </trkpt>
      <trkpt lat="43.711810" lon="5.423310">
       <ele>168</ele>
       <time>2013-10-22T17:37:10Z</time>
      </trkpt>
      <trkpt lat="43.711810" lon="5.424140">
       <ele>168</ele>
       <time>2013-10-22T17:37:23Z</time>
      </trkpt>
      <trkpt lat="43.711730" lon="5.426770">
       <ele>164</ele>
       <time>2013-10-22T17:38:02Z</time>
      </trkpt>
      <trkpt lat="43.711760" lon="5.428000">
       <ele>167</ele>
       <time>2013-10-22T17:38:21Z</time>
      </trkpt>
      <trkpt lat="43.711650" lon="5.429160">
       <ele>169</ele>
       <time>2013-10-22T17:38:38Z</time>
      </trkpt>
      <trkpt lat="43.712440" lon="5.429900">
       <ele>169</ele>
       <time>2013-10-22T17:38:58Z</time>
      </trkpt>
      <trkpt lat="43.713450" lon="5.431170">
       <ele>175</ele>
       <time>2013-10-22T17:39:26Z</time>
      </trkpt>
      <trkpt lat="43.713000" lon="5.431630">
       <ele>176</ele>
       <time>2013-10-22T17:39:38Z</time>
      </trkpt>
      <trkpt lat="43.712910" lon="5.431960">
       <ele>175</ele>
       <time>2013-10-22T17:39:43Z</time>
      </trkpt>
      <trkpt lat="43.712860" lon="5.432040">
       <ele>175</ele>
       <time>2013-10-22T17:39:45Z</time>
      </trkpt>
      <trkpt lat="43.712700" lon="5.432210">
       <ele>177</ele>
       <time>2013-10-22T17:39:49Z</time>
      </trkpt>
      <trkpt lat="43.712370" lon="5.432730">
       <ele>177</ele>
       <time>2013-10-22T17:39:59Z</time>
      </trkpt>
      <trkpt lat="43.712040" lon="5.433200">
       <ele>175</ele>
       <time>2013-10-22T17:40:09Z</time>
      </trkpt>
      <trkpt lat="43.711990" lon="5.433240">
       <ele>175</ele>
       <time>2013-10-22T17:40:10Z</time>
      </trkpt>
      <trkpt lat="43.711710" lon="5.433360">
       <ele>173</ele>
       <time>2013-10-22T17:40:16Z</time>
      </trkpt>
      <trkpt lat="43.711390" lon="5.433710">
       <ele>172</ele>
       <time>2013-10-22T17:40:25Z</time>
      </trkpt>
      <trkpt lat="43.711040" lon="5.434040">
       <ele>175</ele>
       <time>2013-10-22T17:40:33Z</time>
      </trkpt>
      <trkpt lat="43.711020" lon="5.434030">
       <ele>175</ele>
       <time>2013-10-22T17:40:34Z</time>
      </trkpt>
      <trkpt lat="43.710970" lon="5.434070">
       <ele>172</ele>
       <time>2013-10-22T17:40:35Z</time>
      </trkpt>
      <trkpt lat="43.710300" lon="5.434950">
       <ele>174</ele>
       <time>2013-10-22T17:40:54Z</time>
      </trkpt>
      <trkpt lat="43.710230" lon="5.435130">
       <ele>174</ele>
       <time>2013-10-22T17:40:57Z</time>
      </trkpt>
      <trkpt lat="43.710230" lon="5.435290">
       <ele>175</ele>
       <time>2013-10-22T17:41:00Z</time>
      </trkpt>
      <trkpt lat="43.710400" lon="5.435670">
       <ele>176</ele>
       <time>2013-10-22T17:41:06Z</time>
      </trkpt>
      <trkpt lat="43.710330" lon="5.435660">
       <ele>176</ele>
       <time>2013-10-22T17:41:08Z</time>
      </trkpt>
      <trkpt lat="43.710090" lon="5.435700">
       <ele>174</ele>
       <time>2013-10-22T17:41:13Z</time>
      </trkpt>
      <trkpt lat="43.709860" lon="5.435830">
       <ele>171</ele>
       <time>2013-10-22T17:41:18Z</time>
      </trkpt>
      <trkpt lat="43.709720" lon="5.435950">
       <ele>171</ele>
       <time>2013-10-22T17:41:21Z</time>
      </trkpt>
      <trkpt lat="43.709570" lon="5.436100">
       <ele>171</ele>
       <time>2013-10-22T17:41:25Z</time>
      </trkpt>
      <trkpt lat="43.709400" lon="5.436360">
       <ele>172</ele>
       <time>2013-10-22T17:41:31Z</time>
      </trkpt>
      <trkpt lat="43.709270" lon="5.436510">
       <ele>171</ele>
       <time>2013-10-22T17:41:34Z</time>
      </trkpt>
      <trkpt lat="43.709010" lon="5.436740">
       <ele>170</ele>
       <time>2013-10-22T17:41:40Z</time>
      </trkpt>
      <trkpt lat="43.708880" lon="5.436730">
       <ele>170</ele>
       <time>2013-10-22T17:41:43Z</time>
      </trkpt>
      <trkpt lat="43.708170" lon="5.438360">
       <ele>166</ele>
       <time>2013-10-22T17:42:12Z</time>
      </trkpt>
      <trkpt lat="43.706820" lon="5.441350">
       <ele>169</ele>
       <time>2013-10-22T17:43:05Z</time>
      </trkpt>
      <trkpt lat="43.704880" lon="5.445740">
       <ele>163</ele>
       <time>2013-10-22T17:44:22Z</time>
      </trkpt>
      <trkpt lat="43.704750" lon="5.445860">
       <ele>162</ele>
       <time>2013-10-22T17:44:25Z</time>
      </trkpt>
      <trkpt lat="43.704650" lon="5.445870">
       <ele>162</ele>
       <time>2013-10-22T17:44:27Z</time>
      </trkpt>
      <trkpt lat="43.704600" lon="5.445930">
       <ele>162</ele>
       <time>2013-10-22T17:44:28Z</time>
      </trkpt>
      <trkpt lat="43.704550" lon="5.446020">
       <ele>162</ele>
       <time>2013-10-22T17:44:30Z</time>
      </trkpt>
      <trkpt lat="43.704570" lon="5.446190">
       <ele>162</ele>
       <time>2013-10-22T17:44:33Z</time>
      </trkpt>
      <trkpt lat="43.704540" lon="5.446380">
       <ele>162</ele>
       <time>2013-10-22T17:44:36Z</time>
      </trkpt>
      <trkpt lat="43.702240" lon="5.451000">
       <ele>174</ele>
       <time>2013-10-22T17:46:00Z</time>
      </trkpt>
      <trkpt lat="43.701450" lon="5.452650">
       <ele>165</ele>
       <time>2013-10-22T17:46:29Z</time>
      </trkpt>
      <trkpt lat="43.701060" lon="5.453560">
       <ele>169</ele>
       <time>2013-10-22T17:46:45Z</time>
      </trkpt>
      <trkpt lat="43.700480" lon="5.455850">
       <ele>178</ele>
       <time>2013-10-22T17:47:22Z</time>
      </trkpt>
      <trkpt lat="43.700480" lon="5.456410">
       <ele>180</ele>
       <time>2013-10-22T17:47:30Z</time>
      </trkpt>
      <trkpt lat="43.700640" lon="5.459560">
       <ele>188</ele>
       <time>2013-10-22T17:48:17Z</time>
      </trkpt>
      <trkpt lat="43.700640" lon="5.459960">
       <ele>189</ele>
       <time>2013-10-22T17:48:23Z</time>
      </trkpt>
      <trkpt lat="43.700580" lon="5.460330">
       <ele>190</ele>
       <time>2013-10-22T17:48:29Z</time>
      </trkpt>
      <trkpt lat="43.700450" lon="5.460940">
       <ele>190</ele>
       <time>2013-10-22T17:48:38Z</time>
      </trkpt>
      <trkpt lat="43.698870" lon="5.464510">
       <ele>189</ele>
       <time>2013-10-22T17:49:41Z</time>
      </trkpt>
      <trkpt lat="43.698580" lon="5.465320">
       <ele>188</ele>
       <time>2013-10-22T17:49:55Z</time>
      </trkpt>
      <trkpt lat="43.698440" lon="5.465970">
       <ele>186</ele>
       <time>2013-10-22T17:50:05Z</time>
      </trkpt>
      <trkpt lat="43.698310" lon="5.468150">
       <ele>185</ele>
       <time>2013-10-22T17:50:38Z</time>
      </trkpt>
      <trkpt lat="43.698420" lon="5.470670">
       <ele>185</ele>
       <time>2013-10-22T17:51:16Z</time>
      </trkpt>
      <trkpt lat="43.698380" lon="5.472320">
       <ele>189</ele>
       <time>2013-10-22T17:51:40Z</time>
      </trkpt>
      <trkpt lat="43.698330" lon="5.472720">
       <ele>192</ele>
       <time>2013-10-22T17:51:46Z</time>
      </trkpt>
      <trkpt lat="43.698260" lon="5.473070">
       <ele>193</ele>
       <time>2013-10-22T17:51:52Z</time>
      </trkpt>
      <trkpt lat="43.698050" lon="5.473730">
       <ele>190</ele>
       <time>2013-10-22T17:52:03Z</time>
      </trkpt>
      <trkpt lat="43.697970" lon="5.474030">
       <ele>191</ele>
       <time>2013-10-22T17:52:07Z</time>
      </trkpt>
      <trkpt lat="43.697920" lon="5.474390">
       <ele>192</ele>
       <time>2013-10-22T17:52:13Z</time>
      </trkpt>
      <trkpt lat="43.697920" lon="5.474920">
       <ele>193</ele>
       <time>2013-10-22T17:52:21Z</time>
      </trkpt>
      <trkpt lat="43.698180" lon="5.477100">
       <ele>196</ele>
       <time>2013-10-22T17:52:54Z</time>
      </trkpt>
      <trkpt lat="43.698180" lon="5.477570">
       <ele>197</ele>
       <time>2013-10-22T17:53:01Z</time>
      </trkpt>
      <trkpt lat="43.698050" lon="5.478170">
       <ele>198</ele>
       <time>2013-10-22T17:53:10Z</time>
      </trkpt>
      <trkpt lat="43.696750" lon="5.482090">
       <ele>190</ele>
       <time>2013-10-22T17:54:15Z</time>
      </trkpt>
      <trkpt lat="43.696410" lon="5.482970">
       <ele>189</ele>
       <time>2013-10-22T17:54:30Z</time>
      </trkpt>
      <trkpt lat="43.695780" lon="5.484330">
       <ele>190</ele>
       <time>2013-10-22T17:54:54Z</time>
      </trkpt>
      <trkpt lat="43.695620" lon="5.484690">
       <ele>190</ele>
       <time>2013-10-22T17:55:01Z</time>
      </trkpt>
      <trkpt lat="43.695400" lon="5.485380">
       <ele>191</ele>
       <time>2013-10-22T17:55:12Z</time>
      </trkpt>
      <trkpt lat="43.695290" lon="5.485850">
       <ele>192</ele>
       <time>2013-10-22T17:55:19Z</time>
      </trkpt>
      <trkpt lat="43.695120" lon="5.486140">
       <ele>191</ele>
       <time>2013-10-22T17:55:25Z</time>
      </trkpt>
      <trkpt lat="43.695110" lon="5.486480">
       <ele>191</ele>
       <time>2013-10-22T17:55:30Z</time>
      </trkpt>
      <trkpt lat="43.694640" lon="5.488120">
       <ele>192</ele>
       <time>2013-10-22T17:55:56Z</time>
      </trkpt>
      <trkpt lat="43.694400" lon="5.488890">
       <ele>192</ele>
       <time>2013-10-22T17:56:09Z</time>
      </trkpt>
      <trkpt lat="43.694300" lon="5.489180">
       <ele>191</ele>
       <time>2013-10-22T17:56:14Z</time>
      </trkpt>
      <trkpt lat="43.694240" lon="5.489290">
       <ele>191</ele>
       <time>2013-10-22T17:56:16Z</time>
      </trkpt>
      <trkpt lat="43.694190" lon="5.489350">
       <ele>190</ele>
       <time>2013-10-22T17:56:17Z</time>
      </trkpt>
      <trkpt lat="43.694130" lon="5.489370">
       <ele>190</ele>
       <time>2013-10-22T17:56:19Z</time>
      </trkpt>
      <trkpt lat="43.694080" lon="5.489410">
       <ele>190</ele>
       <time>2013-10-22T17:56:20Z</time>
      </trkpt>
      <trkpt lat="43.694030" lon="5.489470">
       <ele>190</ele>
       <time>2013-10-22T17:56:21Z</time>
      </trkpt>
      <trkpt lat="43.694010" lon="5.489560">
       <ele>189</ele>
       <time>2013-10-22T17:56:23Z</time>
      </trkpt>
      <trkpt lat="43.693920" lon="5.489680">
       <ele>188</ele>
       <time>2013-10-22T17:56:25Z</time>
      </trkpt>
      <trkpt lat="43.692780" lon="5.490210">
       <ele>183</ele>
       <time>2013-10-22T17:56:50Z</time>
      </trkpt>
      <trkpt lat="43.692530" lon="5.490370">
       <ele>183</ele>
       <time>2013-10-22T17:56:56Z</time>
      </trkpt>
      <trkpt lat="43.692470" lon="5.490390">
       <ele>183</ele>
       <time>2013-10-22T17:56:57Z</time>
      </trkpt>
      <trkpt lat="43.692360" lon="5.490290">
       <ele>184</ele>
       <time>2013-10-22T17:57:00Z</time>
      </trkpt>
      <trkpt lat="43.692290" lon="5.490270">
       <ele>184</ele>
       <time>2013-10-22T17:57:01Z</time>
      </trkpt>
      <trkpt lat="43.692150" lon="5.490320">
       <ele>184</ele>
       <time>2013-10-22T17:57:04Z</time>
      </trkpt>
      <trkpt lat="43.692100" lon="5.490370">
       <ele>184</ele>
       <time>2013-10-22T17:57:06Z</time>
      </trkpt>
      <trkpt lat="43.692030" lon="5.490500">
       <ele>185</ele>
       <time>2013-10-22T17:57:08Z</time>
      </trkpt>
      <trkpt lat="43.692030" lon="5.490710">
       <ele>185</ele>
       <time>2013-10-22T17:57:11Z</time>
      </trkpt>
      <trkpt lat="43.691890" lon="5.490970">
       <ele>185</ele>
       <time>2013-10-22T17:57:16Z</time>
      </trkpt>
      <trkpt lat="43.691710" lon="5.492030">
       <ele>190</ele>
       <time>2013-10-22T17:57:32Z</time>
      </trkpt>
      <trkpt lat="43.691340" lon="5.494540">
       <ele>198</ele>
       <time>2013-10-22T17:58:11Z</time>
      </trkpt>
      <trkpt lat="43.691290" lon="5.495240">
       <ele>202</ele>
       <time>2013-10-22T17:58:21Z</time>
      </trkpt>
      <trkpt lat="43.691310" lon="5.495530">
       <ele>203</ele>
       <time>2013-10-22T17:58:26Z</time>
      </trkpt>
      <trkpt lat="43.691470" lon="5.496810">
       <ele>202</ele>
       <time>2013-10-22T17:58:45Z</time>
      </trkpt>
      <trkpt lat="43.691550" lon="5.497350">
       <ele>203</ele>
       <time>2013-10-22T17:58:53Z</time>
      </trkpt>
      <trkpt lat="43.691790" lon="5.498150">
       <ele>204</ele>
       <time>2013-10-22T17:59:06Z</time>
      </trkpt>
      <trkpt lat="43.692050" lon="5.498570">
       <ele>207</ele>
       <time>2013-10-22T17:59:15Z</time>
      </trkpt>
      <trkpt lat="43.691540" lon="5.500530">
       <ele>205</ele>
       <time>2013-10-22T17:59:46Z</time>
      </trkpt>
      <trkpt lat="43.691360" lon="5.501610">
       <ele>206</ele>
       <time>2013-10-22T18:00:03Z</time>
      </trkpt>
      <trkpt lat="43.691170" lon="5.503000">
       <ele>206</ele>
       <time>2013-10-22T18:00:24Z</time>
      </trkpt>
      <trkpt lat="43.691790" lon="5.506290">
       <ele>205</ele>
       <time>2013-10-22T18:01:15Z</time>
      </trkpt>
      <trkpt lat="43.691970" lon="5.506770">
       <ele>207</ele>
       <time>2013-10-22T18:01:23Z</time>
      </trkpt>
      <trkpt lat="43.692130" lon="5.507020">
       <ele>210</ele>
       <time>2013-10-22T18:01:28Z</time>
      </trkpt>
      <trkpt lat="43.692660" lon="5.507730">
       <ele>212</ele>
       <time>2013-10-22T18:01:43Z</time>
      </trkpt>
      <trkpt lat="43.692420" lon="5.511110">
       <ele>213</ele>
       <time>2013-10-22T18:02:34Z</time>
      </trkpt>
      <trkpt lat="43.692410" lon="5.511520">
       <ele>214</ele>
       <time>2013-10-22T18:02:40Z</time>
      </trkpt>
      <trkpt lat="43.692610" lon="5.512450">
       <ele>218</ele>
       <time>2013-10-22T18:02:55Z</time>
      </trkpt>
      <trkpt lat="43.692740" lon="5.513380">
       <ele>221</ele>
       <time>2013-10-22T18:03:09Z</time>
      </trkpt>
      <trkpt lat="43.692710" lon="5.513900">
       <ele>222</ele>
       <time>2013-10-22T18:03:17Z</time>
      </trkpt>
      <trkpt lat="43.692450" lon="5.514630">
       <ele>225</ele>
       <time>2013-10-22T18:03:29Z</time>
      </trkpt>
      <trkpt lat="43.692070" lon="5.515590">
       <ele>232</ele>
       <time>2013-10-22T18:03:45Z</time>
      </trkpt>
      <trkpt lat="43.691940" lon="5.515890">
       <ele>233</ele>
       <time>2013-10-22T18:03:51Z</time>
      </trkpt>
      <trkpt lat="43.691810" lon="5.516140">
       <ele>233</ele>
       <time>2013-10-22T18:03:55Z</time>
      </trkpt>
      <trkpt lat="43.691250" lon="5.518060">
       <ele>238</ele>
       <time>2013-10-22T18:04:26Z</time>
      </trkpt>
      <trkpt lat="43.691230" lon="5.518150">
       <ele>238</ele>
       <time>2013-10-22T18:04:28Z</time>
      </trkpt>
      <trkpt lat="43.691250" lon="5.518230">
       <ele>239</ele>
       <time>2013-10-22T18:04:29Z</time>
      </trkpt>
      <trkpt lat="43.691180" lon="5.518270">
       <ele>240</ele>
       <time>2013-10-22T18:04:31Z</time>
      </trkpt>
      <trkpt lat="43.691170" lon="5.518330">
       <ele>240</ele>
       <time>2013-10-22T18:04:31Z</time>
      </trkpt>
      <trkpt lat="43.691170" lon="5.518390">
       <ele>240</ele>
       <time>2013-10-22T18:04:32Z</time>
      </trkpt>
      <trkpt lat="43.691210" lon="5.518480">
       <ele>241</ele>
       <time>2013-10-22T18:04:34Z</time>
      </trkpt>
      <trkpt lat="43.691250" lon="5.518490">
       <ele>241</ele>
       <time>2013-10-22T18:04:35Z</time>
      </trkpt>
      <trkpt lat="43.691330" lon="5.518450">
       <ele>239</ele>
       <time>2013-10-22T18:04:37Z</time>
      </trkpt>
      <trkpt lat="43.691440" lon="5.518720">
       <ele>241</ele>
       <time>2013-10-22T18:04:41Z</time>
      </trkpt>
      <trkpt lat="43.691500" lon="5.518990">
       <ele>242</ele>
       <time>2013-10-22T18:04:45Z</time>
      </trkpt>
      <trkpt lat="43.691520" lon="5.519370">
       <ele>245</ele>
       <time>2013-10-22T18:04:51Z</time>
      </trkpt>
      <trkpt lat="43.691500" lon="5.520000">
       <ele>247</ele>
       <time>2013-10-22T18:05:01Z</time>
      </trkpt>
      <trkpt lat="43.691660" lon="5.520790">
       <ele>249</ele>
       <time>2013-10-22T18:05:13Z</time>
      </trkpt>
      <trkpt lat="43.691700" lon="5.521070">
       <ele>250</ele>
       <time>2013-10-22T18:05:17Z</time>
      </trkpt>
      <trkpt lat="43.691700" lon="5.521320">
       <ele>251</ele>
       <time>2013-10-22T18:05:21Z</time>
      </trkpt>
      <trkpt lat="43.691680" lon="5.521390">
       <ele>251</ele>
       <time>2013-10-22T18:05:22Z</time>
      </trkpt>
      <trkpt lat="43.691660" lon="5.521630">
       <ele>252</ele>
       <time>2013-10-22T18:05:26Z</time>
      </trkpt>
      <trkpt lat="43.691620" lon="5.521800">
       <ele>252</ele>
       <time>2013-10-22T18:05:28Z</time>
      </trkpt>
      <trkpt lat="43.691250" lon="5.522450">
       <ele>256</ele>
       <time>2013-10-22T18:05:41Z</time>
      </trkpt>
      <trkpt lat="43.691130" lon="5.522890">
       <ele>258</ele>
       <time>2013-10-22T18:05:48Z</time>
      </trkpt>
      <trkpt lat="43.691090" lon="5.523280">
       <ele>260</ele>
       <time>2013-10-22T18:05:54Z</time>
      </trkpt>
      <trkpt lat="43.691090" lon="5.523510">
       <ele>261</ele>
       <time>2013-10-22T18:05:57Z</time>
      </trkpt>
      <trkpt lat="43.691120" lon="5.523630">
       <ele>261</ele>
       <time>2013-10-22T18:05:59Z</time>
      </trkpt>
      <trkpt lat="43.691390" lon="5.524370">
       <ele>263</ele>
       <time>2013-10-22T18:06:11Z</time>
      </trkpt>
      <trkpt lat="43.691470" lon="5.524720">
       <ele>264</ele>
       <time>2013-10-22T18:06:17Z</time>
      </trkpt>
      <trkpt lat="43.691520" lon="5.525160">
       <ele>266</ele>
       <time>2013-10-22T18:06:24Z</time>
      </trkpt>
      <trkpt lat="43.691460" lon="5.526270">
       <ele>267</ele>
       <time>2013-10-22T18:06:40Z</time>
      </trkpt>
      <trkpt lat="43.691420" lon="5.527890">
       <ele>270</ele>
       <time>2013-10-22T18:07:05Z</time>
      </trkpt>
      <trkpt lat="43.691600" lon="5.528980">
       <ele>271</ele>
       <time>2013-10-22T18:07:21Z</time>
      </trkpt>
      <trkpt lat="43.691710" lon="5.529320">
       <ele>269</ele>
       <time>2013-10-22T18:07:27Z</time>
      </trkpt>
      <trkpt lat="43.691860" lon="5.529660">
       <ele>267</ele>
       <time>2013-10-22T18:07:33Z</time>
      </trkpt>
      <trkpt lat="43.691870" lon="5.529760">
       <ele>267</ele>
       <time>2013-10-22T18:07:34Z</time>
      </trkpt>
      <trkpt lat="43.691870" lon="5.529910">
       <ele>265</ele>
       <time>2013-10-22T18:07:37Z</time>
      </trkpt>
      <trkpt lat="43.691760" lon="5.530470">
       <ele>260</ele>
       <time>2013-10-22T18:07:45Z</time>
      </trkpt>
      <trkpt lat="43.691620" lon="5.531360">
       <ele>255</ele>
       <time>2013-10-22T18:07:59Z</time>
      </trkpt>
      <trkpt lat="43.691550" lon="5.532930">
       <ele>249</ele>
       <time>2013-10-22T18:08:23Z</time>
      </trkpt>
      <trkpt lat="43.691440" lon="5.533930">
       <ele>247</ele>
       <time>2013-10-22T18:08:38Z</time>
      </trkpt>
      <trkpt lat="43.691470" lon="5.534360">
       <ele>250</ele>
       <time>2013-10-22T18:08:44Z</time>
      </trkpt>
      <trkpt lat="43.691460" lon="5.534550">
       <ele>250</ele>
       <time>2013-10-22T18:08:47Z</time>
      </trkpt>
      <trkpt lat="43.691090" lon="5.535420">
       <ele>253</ele>
       <time>2013-10-22T18:09:02Z</time>
      </trkpt>
      <trkpt lat="43.690800" lon="5.535920">
       <ele>252</ele>
       <time>2013-10-22T18:09:12Z</time>
      </trkpt>
      <trkpt lat="43.690680" lon="5.536250">
       <ele>252</ele>
       <time>2013-10-22T18:09:17Z</time>
      </trkpt>
      <trkpt lat="43.690620" lon="5.536490">
       <ele>252</ele>
       <time>2013-10-22T18:09:21Z</time>
      </trkpt>
      <trkpt lat="43.690440" lon="5.537490">
       <ele>258</ele>
       <time>2013-10-22T18:09:37Z</time>
      </trkpt>
      <trkpt lat="43.690250" lon="5.538380">
       <ele>256</ele>
       <time>2013-10-22T18:09:51Z</time>
      </trkpt>
      <trkpt lat="43.690230" lon="5.538960">
       <ele>256</ele>
       <time>2013-10-22T18:09:59Z</time>
      </trkpt>
      <trkpt lat="43.690180" lon="5.539570">
       <ele>253</ele>
       <time>2013-10-22T18:10:09Z</time>
      </trkpt>
      <trkpt lat="43.690180" lon="5.540070">
       <ele>251</ele>
       <time>2013-10-22T18:10:16Z</time>
      </trkpt>
      <trkpt lat="43.690520" lon="5.542870">
       <ele>256</ele>
       <time>2013-10-22T18:10:59Z</time>
      </trkpt>
      <trkpt lat="43.690650" lon="5.543540">
       <ele>255</ele>
       <time>2013-10-22T18:11:09Z</time>
      </trkpt>
      <trkpt lat="43.690730" lon="5.544100">
       <ele>256</ele>
       <time>2013-10-22T18:11:18Z</time>
      </trkpt>
      <trkpt lat="43.690840" lon="5.545480">
       <ele>253</ele>
       <time>2013-10-22T18:11:38Z</time>
      </trkpt>
      <trkpt lat="43.690960" lon="5.546260">
       <ele>254</ele>
       <time>2013-10-22T18:11:50Z</time>
      </trkpt>
      <trkpt lat="43.691100" lon="5.547630">
       <ele>257</ele>
       <time>2013-10-22T18:12:11Z</time>
      </trkpt>
      <trkpt lat="43.691100" lon="5.547820">
       <ele>257</ele>
       <time>2013-10-22T18:12:14Z</time>
      </trkpt>
      <trkpt lat="43.691020" lon="5.548020">
       <ele>257</ele>
       <time>2013-10-22T18:12:17Z</time>
      </trkpt>
      <trkpt lat="43.691360" lon="5.548800">
       <ele>256</ele>
       <time>2013-10-22T18:12:31Z</time>
      </trkpt>
      <trkpt lat="43.691630" lon="5.549470">
       <ele>255</ele>
       <time>2013-10-22T18:12:42Z</time>
      </trkpt>
      <trkpt lat="43.691760" lon="5.549860">
       <ele>255</ele>
       <time>2013-10-22T18:12:49Z</time>
      </trkpt>
      <trkpt lat="43.692100" lon="5.551290">
       <ele>257</ele>
       <time>2013-10-22T18:13:11Z</time>
      </trkpt>
      <trkpt lat="43.692240" lon="5.551800">
       <ele>257</ele>
       <time>2013-10-22T18:13:20Z</time>
      </trkpt>
      <trkpt lat="43.692420" lon="5.552240">
       <ele>259</ele>
       <time>2013-10-22T18:13:27Z</time>
      </trkpt>
      <trkpt lat="43.692710" lon="5.552880">
       <ele>260</ele>
       <time>2013-10-22T18:13:39Z</time>
      </trkpt>
      <trkpt lat="43.692950" lon="5.553570">
       <ele>263</ele>
       <time>2013-10-22T18:13:50Z</time>
      </trkpt>
      <trkpt lat="43.693210" lon="5.554470">
       <ele>264</ele>
       <time>2013-10-22T18:14:05Z</time>
      </trkpt>
      <trkpt lat="43.693400" lon="5.554970">
       <ele>265</ele>
       <time>2013-10-22T18:14:13Z</time>
      </trkpt>
      <trkpt lat="43.693980" lon="5.556170">
       <ele>261</ele>
       <time>2013-10-22T18:14:35Z</time>
      </trkpt>
      <trkpt lat="43.694090" lon="5.556470">
       <ele>262</ele>
       <time>2013-10-22T18:14:40Z</time>
      </trkpt>
      <trkpt lat="43.694140" lon="5.556840">
       <ele>261</ele>
       <time>2013-10-22T18:14:45Z</time>
      </trkpt>
      <trkpt lat="43.694240" lon="5.558290">
       <ele>266</ele>
       <time>2013-10-22T18:15:07Z</time>
      </trkpt>
      <trkpt lat="43.694530" lon="5.561460">
       <ele>280</ele>
       <time>2013-10-22T18:15:55Z</time>
      </trkpt>
      <trkpt lat="43.694610" lon="5.562560">
       <ele>281</ele>
       <time>2013-10-22T18:16:12Z</time>
      </trkpt>
      <trkpt lat="43.694670" lon="5.562960">
       <ele>280</ele>
       <time>2013-10-22T18:16:18Z</time>
      </trkpt>
      <trkpt lat="43.695040" lon="5.562980">
       <ele>282</ele>
       <time>2013-10-22T18:16:25Z</time>
      </trkpt>
      <trkpt lat="43.695200" lon="5.563040">
       <ele>284</ele>
       <time>2013-10-22T18:16:29Z</time>
      </trkpt>
      <trkpt lat="43.695300" lon="5.563130">
       <ele>284</ele>
       <time>2013-10-22T18:16:31Z</time>
      </trkpt>
      <trkpt lat="43.695350" lon="5.563220">
       <ele>284</ele>
       <time>2013-10-22T18:16:33Z</time>
      </trkpt>
      <trkpt lat="43.695540" lon="5.564040">
       <ele>289</ele>
       <time>2013-10-22T18:16:46Z</time>
      </trkpt>
      <trkpt lat="43.695640" lon="5.564130">
       <ele>289</ele>
       <time>2013-10-22T18:16:48Z</time>
      </trkpt>
      <trkpt lat="43.695990" lon="5.564180">
       <ele>295</ele>
       <time>2013-10-22T18:16:56Z</time>
      </trkpt>
      <trkpt lat="43.696060" lon="5.564250">
       <ele>295</ele>
       <time>2013-10-22T18:16:58Z</time>
      </trkpt>
      <trkpt lat="43.696120" lon="5.564370">
       <ele>295</ele>
       <time>2013-10-22T18:17:00Z</time>
      </trkpt>
      <trkpt lat="43.696300" lon="5.565220">
       <ele>296</ele>
       <time>2013-10-22T18:17:13Z</time>
      </trkpt>
      <trkpt lat="43.696620" lon="5.565130">
       <ele>298</ele>
       <time>2013-10-22T18:17:20Z</time>
      </trkpt>
      <trkpt lat="43.697330" lon="5.564800">
       <ele>303</ele>
       <time>2013-10-22T18:17:35Z</time>
      </trkpt>
      <trkpt lat="43.698290" lon="5.564730">
       <ele>315</ele>
       <time>2013-10-22T18:17:55Z</time>
      </trkpt>
      <trkpt lat="43.698620" lon="5.564720">
       <ele>319</ele>
       <time>2013-10-22T18:18:02Z</time>
      </trkpt>
      <trkpt lat="43.698920" lon="5.564750">
       <ele>322</ele>
       <time>2013-10-22T18:18:08Z</time>
      </trkpt>
      <trkpt lat="43.699230" lon="5.564890">
       <ele>322</ele>
       <time>2013-10-22T18:18:15Z</time>
      </trkpt>
      <trkpt lat="43.699550" lon="5.565080">
       <ele>323</ele>
       <time>2013-10-22T18:18:22Z</time>
      </trkpt>
      <trkpt lat="43.699610" lon="5.565140">
       <ele>323</ele>
       <time>2013-10-22T18:18:24Z</time>
      </trkpt>
      <trkpt lat="43.699630" lon="5.565210">
       <ele>323</ele>
       <time>2013-10-22T18:18:25Z</time>
      </trkpt>
      <trkpt lat="43.699810" lon="5.565850">
       <ele>323</ele>
       <time>2013-10-22T18:18:35Z</time>
      </trkpt>
      <trkpt lat="43.699870" lon="5.566050">
       <ele>322</ele>
       <time>2013-10-22T18:18:39Z</time>
      </trkpt>
      <trkpt lat="43.699940" lon="5.566170">
       <ele>322</ele>
       <time>2013-10-22T18:18:41Z</time>
      </trkpt>
      <trkpt lat="43.700050" lon="5.566300">
       <ele>323</ele>
       <time>2013-10-22T18:18:44Z</time>
      </trkpt>
      <trkpt lat="43.700500" lon="5.566730">
       <ele>326</ele>
       <time>2013-10-22T18:18:55Z</time>
      </trkpt>
      <trkpt lat="43.700430" lon="5.566850">
       <ele>328</ele>
       <time>2013-10-22T18:18:57Z</time>
      </trkpt>
      <trkpt lat="43.700370" lon="5.567110">
       <ele>326</ele>
       <time>2013-10-22T18:19:02Z</time>
      </trkpt>
      <trkpt lat="43.700240" lon="5.568170">
       <ele>328</ele>
       <time>2013-10-22T18:19:18Z</time>
      </trkpt>
      <trkpt lat="43.700260" lon="5.568440">
       <ele>329</ele>
       <time>2013-10-22T18:19:22Z</time>
      </trkpt>
      <trkpt lat="43.700310" lon="5.568880">
       <ele>332</ele>
       <time>2013-10-22T18:19:28Z</time>
      </trkpt>
      <trkpt lat="43.700900" lon="5.568940">
       <ele>334</ele>
       <time>2013-10-22T18:19:41Z</time>
      </trkpt>
      <trkpt lat="43.701000" lon="5.569040">
       <ele>334</ele>
       <time>2013-10-22T18:19:43Z</time>
      </trkpt>
      <trkpt lat="43.701030" lon="5.569100">
       <ele>334</ele>
       <time>2013-10-22T18:19:44Z</time>
      </trkpt>
      <trkpt lat="43.701090" lon="5.569310">
       <ele>335</ele>
       <time>2013-10-22T18:19:48Z</time>
      </trkpt>
      <trkpt lat="43.701130" lon="5.569760">
       <ele>335</ele>
       <time>2013-10-22T18:19:55Z</time>
      </trkpt>
      <trkpt lat="43.701160" lon="5.570870">
       <ele>336</ele>
       <time>2013-10-22T18:20:11Z</time>
      </trkpt>
      <trkpt lat="43.701140" lon="5.571040">
       <ele>337</ele>
       <time>2013-10-22T18:20:14Z</time>
      </trkpt>
      <trkpt lat="43.701090" lon="5.571310">
       <ele>338</ele>
       <time>2013-10-22T18:20:18Z</time>
      </trkpt>
      <trkpt lat="43.700580" lon="5.572510">
       <ele>347</ele>
       <time>2013-10-22T18:20:39Z</time>
      </trkpt>
      <trkpt lat="43.700210" lon="5.573240">
       <ele>351</ele>
       <time>2013-10-22T18:20:52Z</time>
      </trkpt>
      <trkpt lat="43.699980" lon="5.573900">
       <ele>352</ele>
       <time>2013-10-22T18:21:03Z</time>
      </trkpt>
      <trkpt lat="43.699790" lon="5.574400">
       <ele>353</ele>
       <time>2013-10-22T18:21:12Z</time>
      </trkpt>
      <trkpt lat="43.699780" lon="5.574530">
       <ele>353</ele>
       <time>2013-10-22T18:21:14Z</time>
      </trkpt>
      <trkpt lat="43.699790" lon="5.574600">
       <ele>356</ele>
       <time>2013-10-22T18:21:15Z</time>
      </trkpt>
      <trkpt lat="43.699920" lon="5.574920">
       <ele>361</ele>
       <time>2013-10-22T18:21:20Z</time>
      </trkpt>
      <trkpt lat="43.700480" lon="5.575780">
       <ele>370</ele>
       <time>2013-10-22T18:21:38Z</time>
      </trkpt>
      <trkpt lat="43.700690" lon="5.575760">
       <ele>370</ele>
       <time>2013-10-22T18:21:42Z</time>
      </trkpt>
      <trkpt lat="43.701030" lon="5.575790">
       <ele>372</ele>
       <time>2013-10-22T18:21:49Z</time>
      </trkpt>
      <trkpt lat="43.701110" lon="5.575840">
       <ele>372</ele>
       <time>2013-10-22T18:21:51Z</time>
      </trkpt>
      <trkpt lat="43.701290" lon="5.576000">
       <ele>373</ele>
       <time>2013-10-22T18:21:55Z</time>
      </trkpt>
      <trkpt lat="43.701400" lon="5.576190">
       <ele>373</ele>
       <time>2013-10-22T18:21:59Z</time>
      </trkpt>
      <trkpt lat="43.701690" lon="5.576980">
       <ele>377</ele>
       <time>2013-10-22T18:22:12Z</time>
      </trkpt>
      <trkpt lat="43.702010" lon="5.578060">
       <ele>380</ele>
       <time>2013-10-22T18:22:30Z</time>
      </trkpt>
      <trkpt lat="43.702060" lon="5.578290">
       <ele>381</ele>
       <time>2013-10-22T18:22:33Z</time>
      </trkpt>
      <trkpt lat="43.702080" lon="5.578580">
       <ele>382</ele>
       <time>2013-10-22T18:22:38Z</time>
      </trkpt>
      <trkpt lat="43.702090" lon="5.581720">
       <ele>380</ele>
       <time>2013-10-22T18:23:25Z</time>
      </trkpt>
      <trkpt lat="43.702040" lon="5.582010">
       <ele>382</ele>
       <time>2013-10-22T18:23:29Z</time>
      </trkpt>
      <trkpt lat="43.701950" lon="5.582300">
       <ele>382</ele>
       <time>2013-10-22T18:23:34Z</time>
      </trkpt>
      <trkpt lat="43.701510" lon="5.583510">
       <ele>390</ele>
       <time>2013-10-22T18:23:54Z</time>
      </trkpt>
      <trkpt lat="43.701460" lon="5.583660">
       <ele>390</ele>
       <time>2013-10-22T18:23:57Z</time>
      </trkpt>
      <trkpt lat="43.701430" lon="5.583790">
       <ele>390</ele>
       <time>2013-10-22T18:23:59Z</time>
      </trkpt>
      <trkpt lat="43.701420" lon="5.584050">
       <ele>391</ele>
       <time>2013-10-22T18:24:03Z</time>
      </trkpt>
      <trkpt lat="43.701420" lon="5.584460">
       <ele>391</ele>
       <time>2013-10-22T18:24:09Z</time>
      </trkpt>
      <trkpt lat="43.701530" lon="5.585590">
       <ele>391</ele>
       <time>2013-10-22T18:24:26Z</time>
      </trkpt>
      <trkpt lat="43.701580" lon="5.585950">
       <ele>392</ele>
       <time>2013-10-22T18:24:31Z</time>
      </trkpt>
      <trkpt lat="43.702690" lon="5.590200">
       <ele>392</ele>
       <time>2013-10-22T18:25:39Z</time>
      </trkpt>
      <trkpt lat="43.702780" lon="5.590770">
       <ele>394</ele>
       <time>2013-10-22T18:25:48Z</time>
      </trkpt>
      <trkpt lat="43.702860" lon="5.591870">
       <ele>398</ele>
       <time>2013-10-22T18:26:04Z</time>
      </trkpt>
      <trkpt lat="43.702910" lon="5.593630">
       <ele>401</ele>
       <time>2013-10-22T18:26:31Z</time>
      </trkpt>
      <trkpt lat="43.702910" lon="5.594860">
       <ele>405</ele>
       <time>2013-10-22T18:26:49Z</time>
      </trkpt>
      <trkpt lat="43.702900" lon="5.595490">
       <ele>404</ele>
       <time>2013-10-22T18:26:59Z</time>
      </trkpt>
      <trkpt lat="43.702910" lon="5.595910">
       <ele>403</ele>
       <time>2013-10-22T18:27:05Z</time>
      </trkpt>
      <trkpt lat="43.702930" lon="5.596150">
       <ele>402</ele>
       <time>2013-10-22T18:27:09Z</time>
      </trkpt>
      <trkpt lat="43.702960" lon="5.596330">
       <ele>402</ele>
       <time>2013-10-22T18:27:11Z</time>
      </trkpt>
      <trkpt lat="43.703250" lon="5.597460">
       <ele>404</ele>
       <time>2013-10-22T18:27:29Z</time>
      </trkpt>
      <trkpt lat="43.703300" lon="5.597680">
       <ele>405</ele>
       <time>2013-10-22T18:27:33Z</time>
      </trkpt>
      <trkpt lat="43.703300" lon="5.598630">
       <ele>404</ele>
       <time>2013-10-22T18:27:47Z</time>
      </trkpt>
      <trkpt lat="43.703330" lon="5.599130">
       <ele>402</ele>
       <time>2013-10-22T18:27:55Z</time>
      </trkpt>
      <trkpt lat="43.703430" lon="5.599590">
       <ele>400</ele>
       <time>2013-10-22T18:28:02Z</time>
      </trkpt>
      <trkpt lat="43.703510" lon="5.600130">
       <ele>402</ele>
       <time>2013-10-22T18:28:10Z</time>
      </trkpt>
      <trkpt lat="43.703540" lon="5.600700">
       <ele>402</ele>
       <time>2013-10-22T18:28:19Z</time>
      </trkpt>
      <trkpt lat="43.703510" lon="5.601720">
       <ele>403</ele>
       <time>2013-10-22T18:28:34Z</time>
      </trkpt>
      <trkpt lat="43.703540" lon="5.602560">
       <ele>403</ele>
       <time>2013-10-22T18:28:46Z</time>
      </trkpt>
      <trkpt lat="43.703750" lon="5.603970">
       <ele>403</ele>
       <time>2013-10-22T18:29:08Z</time>
      </trkpt>
      <trkpt lat="43.704520" lon="5.610840">
       <ele>395</ele>
       <time>2013-10-22T18:30:52Z</time>
      </trkpt>
      <trkpt lat="43.705650" lon="5.617360">
       <ele>378</ele>
       <time>2013-10-22T18:32:33Z</time>
      </trkpt>
      <trkpt lat="43.705780" lon="5.618300">
       <ele>375</ele>
       <time>2013-10-22T18:32:47Z</time>
      </trkpt>
      <trkpt lat="43.705970" lon="5.620490">
       <ele>374</ele>
       <time>2013-10-22T18:33:20Z</time>
      </trkpt>
      <trkpt lat="43.706000" lon="5.621040">
       <ele>372</ele>
       <time>2013-10-22T18:33:28Z</time>
      </trkpt>
      <trkpt lat="43.706000" lon="5.621460">
       <ele>372</ele>
       <time>2013-10-22T18:33:35Z</time>
      </trkpt>
      <trkpt lat="43.705950" lon="5.621890">
       <ele>373</ele>
       <time>2013-10-22T18:33:41Z</time>
      </trkpt>
      <trkpt lat="43.705890" lon="5.622260">
       <ele>372</ele>
       <time>2013-10-22T18:33:47Z</time>
      </trkpt>
      <trkpt lat="43.705210" lon="5.624710">
       <ele>365</ele>
       <time>2013-10-22T18:34:26Z</time>
      </trkpt>
      <trkpt lat="43.705090" lon="5.625400">
       <ele>366</ele>
       <time>2013-10-22T18:34:37Z</time>
      </trkpt>
      <trkpt lat="43.705070" lon="5.625770">
       <ele>365</ele>
       <time>2013-10-22T18:34:42Z</time>
      </trkpt>
      <trkpt lat="43.705310" lon="5.628900">
       <ele>356</ele>
       <time>2013-10-22T18:35:30Z</time>
      </trkpt>
      <trkpt lat="43.705330" lon="5.629610">
       <ele>352</ele>
       <time>2013-10-22T18:35:40Z</time>
      </trkpt>
      <trkpt lat="43.705280" lon="5.631290">
       <ele>350</ele>
       <time>2013-10-22T18:36:06Z</time>
      </trkpt>
      <trkpt lat="43.705340" lon="5.632410">
       <ele>349</ele>
       <time>2013-10-22T18:36:22Z</time>
      </trkpt>
      <trkpt lat="43.705410" lon="5.632850">
       <ele>350</ele>
       <time>2013-10-22T18:36:29Z</time>
      </trkpt>
      <trkpt lat="43.706100" lon="5.635590">
       <ele>346</ele>
       <time>2013-10-22T18:37:13Z</time>
      </trkpt>
      <trkpt lat="43.706320" lon="5.636570">
       <ele>343</ele>
       <time>2013-10-22T18:37:28Z</time>
      </trkpt>
      <trkpt lat="43.706420" lon="5.637380">
       <ele>340</ele>
       <time>2013-10-22T18:37:40Z</time>
      </trkpt>
      <trkpt lat="43.706370" lon="5.639420">
       <ele>334</ele>
       <time>2013-10-22T18:38:11Z</time>
      </trkpt>
      <trkpt lat="43.706450" lon="5.640670">
       <ele>330</ele>
       <time>2013-10-22T18:38:30Z</time>
      </trkpt>
      <trkpt lat="43.706470" lon="5.640760">
       <ele>328</ele>
       <time>2013-10-22T18:38:31Z</time>
      </trkpt>
      <trkpt lat="43.706660" lon="5.641030">
       <ele>328</ele>
       <time>2013-10-22T18:38:37Z</time>
      </trkpt>
      <trkpt lat="43.706730" lon="5.641160">
       <ele>328</ele>
       <time>2013-10-22T18:38:39Z</time>
      </trkpt>
      <trkpt lat="43.706790" lon="5.641510">
       <ele>328</ele>
       <time>2013-10-22T18:38:45Z</time>
      </trkpt>
      <trkpt lat="43.706810" lon="5.641680">
       <ele>330</ele>
       <time>2013-10-22T18:38:47Z</time>
      </trkpt>
      <trkpt lat="43.706760" lon="5.642390">
       <ele>326</ele>
       <time>2013-10-22T18:38:58Z</time>
      </trkpt>
      <trkpt lat="43.706870" lon="5.643060">
       <ele>327</ele>
       <time>2013-10-22T18:39:08Z</time>
      </trkpt>
      <trkpt lat="43.707020" lon="5.644330">
       <ele>325</ele>
       <time>2013-10-22T18:39:27Z</time>
      </trkpt>
      <trkpt lat="43.706950" lon="5.647230">
       <ele>323</ele>
       <time>2013-10-22T18:40:11Z</time>
      </trkpt>
      <trkpt lat="43.706490" lon="5.651100">
       <ele>311</ele>
       <time>2013-10-22T18:41:10Z</time>
      </trkpt>
      <trkpt lat="43.706400" lon="5.651550">
       <ele>311</ele>
       <time>2013-10-22T18:41:17Z</time>
      </trkpt>
      <trkpt lat="43.706400" lon="5.652530">
       <ele>311</ele>
       <time>2013-10-22T18:41:31Z</time>
      </trkpt>
      <trkpt lat="43.705660" lon="5.653810">
       <ele>307</ele>
       <time>2013-10-22T18:41:56Z</time>
      </trkpt>
      <trkpt lat="43.705460" lon="5.654280">
       <ele>308</ele>
       <time>2013-10-22T18:42:04Z</time>
      </trkpt>
      <trkpt lat="43.705260" lon="5.654800">
       <ele>309</ele>
       <time>2013-10-22T18:42:13Z</time>
      </trkpt>
      <trkpt lat="43.704860" lon="5.655110">
       <ele>309</ele>
       <time>2013-10-22T18:42:22Z</time>
      </trkpt>
      <trkpt lat="43.704630" lon="5.655490">
       <ele>309</ele>
       <time>2013-10-22T18:42:30Z</time>
      </trkpt>
      <trkpt lat="43.704760" lon="5.655710">
       <ele>308</ele>
       <time>2013-10-22T18:42:34Z</time>
      </trkpt>
      <trkpt lat="43.704650" lon="5.656390">
       <ele>304</ele>
       <time>2013-10-22T18:42:45Z</time>
      </trkpt>
      <trkpt lat="43.704720" lon="5.656410">
       <ele>304</ele>
       <time>2013-10-22T18:42:46Z</time>
      </trkpt>
      <trkpt lat="43.704340" lon="5.657200">
       <ele>300</ele>
       <time>2013-10-22T18:43:00Z</time>
      </trkpt>
      <trkpt lat="43.704310" lon="5.657380">
       <ele>298</ele>
       <time>2013-10-22T18:43:03Z</time>
      </trkpt>
      <trkpt lat="43.704350" lon="5.657600">
       <ele>298</ele>
       <time>2013-10-22T18:43:06Z</time>
      </trkpt>
      <trkpt lat="43.704700" lon="5.658400">
       <ele>290</ele>
       <time>2013-10-22T18:43:20Z</time>
      </trkpt>
      <trkpt lat="43.704620" lon="5.658610">
       <ele>289</ele>
       <time>2013-10-22T18:43:24Z</time>
      </trkpt>
      <trkpt lat="43.704120" lon="5.660160">
       <ele>279</ele>
       <time>2013-10-22T18:43:49Z</time>
      </trkpt>
      <trkpt lat="43.703520" lon="5.661670">
       <ele>274</ele>
       <time>2013-10-22T18:44:15Z</time>
      </trkpt>
      <trkpt lat="43.703440" lon="5.661920">
       <ele>275</ele>
       <time>2013-10-22T18:44:19Z</time>
      </trkpt>
      <trkpt lat="43.703380" lon="5.662200">
       <ele>273</ele>
       <time>2013-10-22T18:44:24Z</time>
      </trkpt>
      <trkpt lat="43.703400" lon="5.664150">
       <ele>265</ele>
       <time>2013-10-22T18:44:53Z</time>
      </trkpt>
      <trkpt lat="43.703360" lon="5.664480">
       <ele>263</ele>
       <time>2013-10-22T18:44:58Z</time>
      </trkpt>
      <trkpt lat="43.702300" lon="5.668890">
       <ele>254</ele>
       <time>2013-10-22T18:46:08Z</time>
      </trkpt>
      <trkpt lat="43.701580" lon="5.671080">
       <ele>244</ele>
       <time>2013-10-22T18:46:44Z</time>
      </trkpt>
      <trkpt lat="43.701340" lon="5.672140">
       <ele>242</ele>
       <time>2013-10-22T18:47:00Z</time>
      </trkpt>
      <trkpt lat="43.701220" lon="5.672350">
       <ele>243</ele>
       <time>2013-10-22T18:47:04Z</time>
      </trkpt>
      <trkpt lat="43.701160" lon="5.672430">
       <ele>243</ele>
       <time>2013-10-22T18:47:06Z</time>
      </trkpt>
      <trkpt lat="43.701060" lon="5.672510">
       <ele>243</ele>
       <time>2013-10-22T18:47:09Z</time>
      </trkpt>
      <trkpt lat="43.700340" lon="5.672990">
       <ele>241</ele>
       <time>2013-10-22T18:47:25Z</time>
      </trkpt>
      <trkpt lat="43.697990" lon="5.670250">
       <ele>252</ele>
       <time>2013-10-22T18:48:29Z</time>
      </trkpt>
      <trkpt lat="43.697840" lon="5.670130">
       <ele>249</ele>
       <time>2013-10-22T18:48:32Z</time>
      </trkpt>
      <trkpt lat="43.697700" lon="5.670050">
       <ele>249</ele>
       <time>2013-10-22T18:48:36Z</time>
      </trkpt>
      <trkpt lat="43.696200" lon="5.669450">
       <ele>248</ele>
       <time>2013-10-22T18:49:08Z</time>
      </trkpt>
      <trkpt lat="43.696070" lon="5.669480">
       <ele>248</ele>
       <time>2013-10-22T18:49:11Z</time>
      </trkpt>
      <trkpt lat="43.695800" lon="5.669450">
       <ele>247</ele>
       <time>2013-10-22T18:49:16Z</time>
      </trkpt>
      <trkpt lat="43.694930" lon="5.669190">
       <ele>245</ele>
       <time>2013-10-22T18:49:35Z</time>
      </trkpt>
      <trkpt lat="43.693760" lon="5.668610">
       <ele>242</ele>
       <time>2013-10-22T18:50:01Z</time>
      </trkpt>
      <trkpt lat="43.693610" lon="5.668520">
       <ele>239</ele>
       <time>2013-10-22T18:50:04Z</time>
      </trkpt>
      <trkpt lat="43.693260" lon="5.668720">
       <ele>236</ele>
       <time>2013-10-22T18:50:12Z</time>
      </trkpt>
      <trkpt lat="43.693100" lon="5.668770">
       <ele>232</ele>
       <time>2013-10-22T18:50:15Z</time>
      </trkpt>
      <trkpt lat="43.692970" lon="5.668780">
       <ele>232</ele>
       <time>2013-10-22T18:50:18Z</time>
      </trkpt>
      <trkpt lat="43.692860" lon="5.668750">
       <ele>230</ele>
       <time>2013-10-22T18:50:20Z</time>
      </trkpt>
      <trkpt lat="43.691620" lon="5.668120">
       <ele>233</ele>
       <time>2013-10-22T18:50:48Z</time>
      </trkpt>
      <trkpt lat="43.691390" lon="5.667960">
       <ele>233</ele>
       <time>2013-10-22T18:50:53Z</time>
      </trkpt>
      <trkpt lat="43.691260" lon="5.667830">
       <ele>236</ele>
       <time>2013-10-22T18:50:56Z</time>
      </trkpt>
      <trkpt lat="43.690940" lon="5.667470">
       <ele>235</ele>
       <time>2013-10-22T18:51:05Z</time>
      </trkpt>
      <trkpt lat="43.690890" lon="5.667390">
       <ele>235</ele>
       <time>2013-10-22T18:51:06Z</time>
      </trkpt>
      <trkpt lat="43.690800" lon="5.667300">
       <ele>239</ele>
       <time>2013-10-22T18:51:09Z</time>
      </trkpt>
      <trkpt lat="43.690620" lon="5.667220">
       <ele>236</ele>
       <time>2013-10-22T18:51:13Z</time>
      </trkpt>
      <trkpt lat="43.689040" lon="5.667100">
       <ele>232</ele>
       <time>2013-10-22T18:51:45Z</time>
      </trkpt>
      <trkpt lat="43.688910" lon="5.667010">
       <ele>231</ele>
       <time>2013-10-22T18:51:48Z</time>
      </trkpt>
      <trkpt lat="43.688860" lon="5.666880">
       <ele>231</ele>
       <time>2013-10-22T18:51:51Z</time>
      </trkpt>
      <trkpt lat="43.688800" lon="5.666820">
       <ele>231</ele>
       <time>2013-10-22T18:51:52Z</time>
      </trkpt>
      <trkpt lat="43.688700" lon="5.666800">
       <ele>230</ele>
       <time>2013-10-22T18:51:54Z</time>
      </trkpt>
      <trkpt lat="43.688620" lon="5.666810">
       <ele>233</ele>
       <time>2013-10-22T18:51:56Z</time>
      </trkpt>
      <trkpt lat="43.688540" lon="5.666890">
       <ele>233</ele>
       <time>2013-10-22T18:51:58Z</time>
      </trkpt>
      <trkpt lat="43.688490" lon="5.667010">
       <ele>233</ele>
       <time>2013-10-22T18:52:00Z</time>
      </trkpt>
      <trkpt lat="43.688480" lon="5.667120">
       <ele>237</ele>
       <time>2013-10-22T18:52:02Z</time>
      </trkpt>
      <trkpt lat="43.688530" lon="5.667310">
       <ele>237</ele>
       <time>2013-10-22T18:52:05Z</time>
      </trkpt>
      <trkpt lat="43.688620" lon="5.667410">
       <ele>241</ele>
       <time>2013-10-22T18:52:07Z</time>
      </trkpt>
      <trkpt lat="43.688690" lon="5.667420">
       <ele>241</ele>
       <time>2013-10-22T18:52:09Z</time>
      </trkpt>
      <trkpt lat="43.688780" lon="5.667520">
       <ele>238</ele>
       <time>2013-10-22T18:52:11Z</time>
      </trkpt>
      <trkpt lat="43.688860" lon="5.667660">
       <ele>242</ele>
       <time>2013-10-22T18:52:14Z</time>
      </trkpt>
      <trkpt lat="43.689060" lon="5.667900">
       <ele>238</ele>
       <time>2013-10-22T18:52:19Z</time>
      </trkpt>
      <trkpt lat="43.689410" lon="5.668760">
       <ele>247</ele>
       <time>2013-10-22T18:52:34Z</time>
      </trkpt>
      <trkpt lat="43.689490" lon="5.668920">
       <ele>247</ele>
       <time>2013-10-22T18:52:37Z</time>
      </trkpt>
      <trkpt lat="43.689620" lon="5.669110">
       <ele>244</ele>
       <time>2013-10-22T18:52:41Z</time>
      </trkpt>
      <trkpt lat="43.689750" lon="5.669400">
       <ele>248</ele>
       <time>2013-10-22T18:52:46Z</time>
      </trkpt>
      <trkpt lat="43.690360" lon="5.671230">
       <ele>245</ele>
       <time>2013-10-22T18:53:16Z</time>
      </trkpt>
      <trkpt lat="43.690360" lon="5.672860">
       <ele>251</ele>
       <time>2013-10-22T18:53:41Z</time>
      </trkpt>
      <trkpt lat="43.690330" lon="5.673210">
       <ele>250</ele>
       <time>2013-10-22T18:53:46Z</time>
      </trkpt>
      <trkpt lat="43.690250" lon="5.673590">
       <ele>249</ele>
       <time>2013-10-22T18:53:52Z</time>
      </trkpt>
      <trkpt lat="43.690180" lon="5.673830">
       <ele>248</ele>
       <time>2013-10-22T18:53:56Z</time>
      </trkpt>
      <trkpt lat="43.690170" lon="5.673940">
       <ele>248</ele>
       <time>2013-10-22T18:53:57Z</time>
      </trkpt>
      <trkpt lat="43.690090" lon="5.676020">
       <ele>261</ele>
       <time>2013-10-22T18:54:29Z</time>
      </trkpt>
      <trkpt lat="43.689990" lon="5.676780">
       <ele>258</ele>
       <time>2013-10-22T18:54:40Z</time>
      </trkpt>
      <trkpt lat="43.689980" lon="5.677020">
       <ele>257</ele>
       <time>2013-10-22T18:54:44Z</time>
      </trkpt>
      <trkpt lat="43.690010" lon="5.677520">
       <ele>257</ele>
       <time>2013-10-22T18:54:51Z</time>
      </trkpt>
      <trkpt lat="43.690170" lon="5.678860">
       <ele>254</ele>
       <time>2013-10-22T18:55:12Z</time>
      </trkpt>
      <trkpt lat="43.690180" lon="5.679070">
       <ele>254</ele>
       <time>2013-10-22T18:55:15Z</time>
      </trkpt>
      <trkpt lat="43.690170" lon="5.679300">
       <ele>254</ele>
       <time>2013-10-22T18:55:18Z</time>
      </trkpt>
      <trkpt lat="43.690120" lon="5.679740">
       <ele>258</ele>
       <time>2013-10-22T18:55:25Z</time>
      </trkpt>
      <trkpt lat="43.689990" lon="5.680300">
       <ele>253</ele>
       <time>2013-10-22T18:55:34Z</time>
      </trkpt>
      <trkpt lat="43.689490" lon="5.681550">
       <ele>257</ele>
       <time>2013-10-22T18:55:55Z</time>
      </trkpt>
      <trkpt lat="43.689380" lon="5.682050">
       <ele>257</ele>
       <time>2013-10-22T18:56:03Z</time>
      </trkpt>
      <trkpt lat="43.689330" lon="5.682550">
       <ele>255</ele>
       <time>2013-10-22T18:56:11Z</time>
      </trkpt>
      <trkpt lat="43.689120" lon="5.685800">
       <ele>249</ele>
       <time>2013-10-22T18:56:59Z</time>
      </trkpt>
      <trkpt lat="43.689070" lon="5.689940">
       <ele>261</ele>
       <time>2013-10-22T18:58:02Z</time>
      </trkpt>
      <trkpt lat="43.689010" lon="5.691860">
       <ele>267</ele>
       <time>2013-10-22T18:58:30Z</time>
      </trkpt>
      <trkpt lat="43.688690" lon="5.697080">
       <ele>261</ele>
       <time>2013-10-22T18:59:49Z</time>
      </trkpt>
      <trkpt lat="43.688540" lon="5.698550">
       <ele>254</ele>
       <time>2013-10-22T19:00:11Z</time>
      </trkpt>
      <trkpt lat="43.688370" lon="5.699420">
       <ele>256</ele>
       <time>2013-10-22T19:00:25Z</time>
      </trkpt>
      <trkpt lat="43.688040" lon="5.700360">
       <ele>254</ele>
       <time>2013-10-22T19:00:40Z</time>
      </trkpt>
      <trkpt lat="43.687720" lon="5.701080">
       <ele>250</ele>
       <time>2013-10-22T19:00:53Z</time>
      </trkpt>
      <trkpt lat="43.686290" lon="5.703830">
       <ele>251</ele>
       <time>2013-10-22T19:01:44Z</time>
      </trkpt>
      <trkpt lat="43.686150" lon="5.704150">
       <ele>251</ele>
       <time>2013-10-22T19:01:49Z</time>
      </trkpt>
      <trkpt lat="43.685940" lon="5.704750">
       <ele>252</ele>
       <time>2013-10-22T19:01:59Z</time>
      </trkpt>
      <trkpt lat="43.685840" lon="5.705170">
       <ele>251</ele>
       <time>2013-10-22T19:02:06Z</time>
      </trkpt>
      <trkpt lat="43.685710" lon="5.706010">
       <ele>251</ele>
       <time>2013-10-22T19:02:19Z</time>
      </trkpt>
      <trkpt lat="43.685610" lon="5.708240">
       <ele>250</ele>
       <time>2013-10-22T19:02:52Z</time>
      </trkpt>
      <trkpt lat="43.685600" lon="5.709190">
       <ele>251</ele>
       <time>2013-10-22T19:03:07Z</time>
      </trkpt>
      <trkpt lat="43.685630" lon="5.709980">
       <ele>252</ele>
       <time>2013-10-22T19:03:19Z</time>
      </trkpt>
      <trkpt lat="43.685760" lon="5.710650">
       <ele>253</ele>
       <time>2013-10-22T19:03:29Z</time>
      </trkpt>
      <trkpt lat="43.687110" lon="5.716050">
       <ele>251</ele>
       <time>2013-10-22T19:04:55Z</time>
      </trkpt>
      <trkpt lat="43.688300" lon="5.719960">
       <ele>251</ele>
       <time>2013-10-22T19:05:58Z</time>
      </trkpt>
      <trkpt lat="43.688510" lon="5.720480">
       <ele>251</ele>
       <time>2013-10-22T19:06:07Z</time>
      </trkpt>
      <trkpt lat="43.688750" lon="5.720910">
       <ele>253</ele>
       <time>2013-10-22T19:06:15Z</time>
      </trkpt>
      <trkpt lat="43.689460" lon="5.721830">
       <ele>257</ele>
       <time>2013-10-22T19:06:35Z</time>
      </trkpt>
      <trkpt lat="43.692820" lon="5.726060">
       <ele>257</ele>
       <time>2013-10-22T19:08:10Z</time>
      </trkpt>
      <trkpt lat="43.693210" lon="5.726650">
       <ele>257</ele>
       <time>2013-10-22T19:08:22Z</time>
      </trkpt>
      <trkpt lat="43.693900" lon="5.728030">
       <ele>260</ele>
       <time>2013-10-22T19:08:47Z</time>
      </trkpt>
      <trkpt lat="43.694220" lon="5.728540">
       <ele>262</ele>
       <time>2013-10-22T19:08:57Z</time>
      </trkpt>
      <trkpt lat="43.695800" lon="5.730550">
       <ele>259</ele>
       <time>2013-10-22T19:09:41Z</time>
      </trkpt>
      <trkpt lat="43.697260" lon="5.732520">
       <ele>258</ele>
       <time>2013-10-22T19:10:24Z</time>
      </trkpt>
      <trkpt lat="43.697600" lon="5.732930">
       <ele>259</ele>
       <time>2013-10-22T19:10:33Z</time>
      </trkpt>
      <trkpt lat="43.698130" lon="5.733410">
       <ele>258</ele>
       <time>2013-10-22T19:10:46Z</time>
      </trkpt>
      <trkpt lat="43.698460" lon="5.733790">
       <ele>256</ele>
       <time>2013-10-22T19:10:55Z</time>
      </trkpt>
      <trkpt lat="43.698760" lon="5.734180">
       <ele>252</ele>
       <time>2013-10-22T19:11:04Z</time>
      </trkpt>
      <trkpt lat="43.699030" lon="5.734730">
       <ele>249</ele>
       <time>2013-10-22T19:11:14Z</time>
      </trkpt>
      <trkpt lat="43.699160" lon="5.735160">
       <ele>250</ele>
       <time>2013-10-22T19:11:21Z</time>
      </trkpt>
      <trkpt lat="43.699740" lon="5.737700">
       <ele>251</ele>
       <time>2013-10-22T19:12:01Z</time>
      </trkpt>
      <trkpt lat="43.699820" lon="5.738090">
       <ele>251</ele>
       <time>2013-10-22T19:12:07Z</time>
      </trkpt>
      <trkpt lat="43.699920" lon="5.738810">
       <ele>252</ele>
       <time>2013-10-22T19:12:18Z</time>
      </trkpt>
      <trkpt lat="43.699890" lon="5.739190">
       <ele>253</ele>
       <time>2013-10-22T19:12:23Z</time>
      </trkpt>
      <trkpt lat="43.699870" lon="5.739310">
       <ele>254</ele>
       <time>2013-10-22T19:12:25Z</time>
      </trkpt>
      <trkpt lat="43.699840" lon="5.739390">
       <ele>253</ele>
       <time>2013-10-22T19:12:27Z</time>
      </trkpt>
      <trkpt lat="43.699840" lon="5.739500">
       <ele>253</ele>
       <time>2013-10-22T19:12:28Z</time>
      </trkpt>
      <trkpt lat="43.699890" lon="5.739620">
       <ele>255</ele>
       <time>2013-10-22T19:12:30Z</time>
      </trkpt>
      <trkpt lat="43.699940" lon="5.739670">
       <ele>255</ele>
       <time>2013-10-22T19:12:32Z</time>
      </trkpt>
      <trkpt lat="43.700000" lon="5.739690">
       <ele>255</ele>
       <time>2013-10-22T19:12:33Z</time>
      </trkpt>
      <trkpt lat="43.700160" lon="5.739870">
       <ele>257</ele>
       <time>2013-10-22T19:12:37Z</time>
      </trkpt>
      <trkpt lat="43.700240" lon="5.740010">
       <ele>257</ele>
       <time>2013-10-22T19:12:40Z</time>
      </trkpt>
      <trkpt lat="43.700390" lon="5.740340">
       <ele>257</ele>
       <time>2013-10-22T19:12:46Z</time>
      </trkpt>
      <trkpt lat="43.700480" lon="5.740670">
       <ele>258</ele>
       <time>2013-10-22T19:12:51Z</time>
      </trkpt>
      <trkpt lat="43.700690" lon="5.742170">
       <ele>262</ele>
       <time>2013-10-22T19:13:14Z</time>
      </trkpt>
      <trkpt lat="43.700850" lon="5.743470">
       <ele>265</ele>
       <time>2013-10-22T19:13:34Z</time>
      </trkpt>
      <trkpt lat="43.701030" lon="5.744710">
       <ele>269</ele>
       <time>2013-10-22T19:13:53Z</time>
      </trkpt>
      <trkpt lat="43.701110" lon="5.745160">
       <ele>271</ele>
       <time>2013-10-22T19:13:59Z</time>
      </trkpt>
      <trkpt lat="43.701500" lon="5.746620">
       <ele>273</ele>
       <time>2013-10-22T19:14:23Z</time>
      </trkpt>
      <trkpt lat="43.701550" lon="5.746890">
       <ele>272</ele>
       <time>2013-10-22T19:14:27Z</time>
      </trkpt>
      <trkpt lat="43.701590" lon="5.747980">
       <ele>277</ele>
       <time>2013-10-22T19:14:43Z</time>
      </trkpt>
      <trkpt lat="43.701630" lon="5.748230">
       <ele>278</ele>
       <time>2013-10-22T19:14:47Z</time>
      </trkpt>
      <trkpt lat="43.701690" lon="5.748420">
       <ele>278</ele>
       <time>2013-10-22T19:14:50Z</time>
      </trkpt>
      <trkpt lat="43.701750" lon="5.748540">
       <ele>280</ele>
       <time>2013-10-22T19:14:52Z</time>
      </trkpt>
      <trkpt lat="43.701870" lon="5.748700">
       <ele>280</ele>
       <time>2013-10-22T19:14:56Z</time>
      </trkpt>
      <trkpt lat="43.702090" lon="5.748980">
       <ele>282</ele>
       <time>2013-10-22T19:15:02Z</time>
      </trkpt>
      <trkpt lat="43.702950" lon="5.750140">
       <ele>285</ele>
       <time>2013-10-22T19:15:27Z</time>
      </trkpt>
      <trkpt lat="43.703350" lon="5.750770">
       <ele>285</ele>
       <time>2013-10-22T19:15:40Z</time>
      </trkpt>
      <trkpt lat="43.703730" lon="5.751520">
       <ele>284</ele>
       <time>2013-10-22T19:15:53Z</time>
      </trkpt>
      <trkpt lat="43.704280" lon="5.752930">
       <ele>284</ele>
       <time>2013-10-22T19:16:17Z</time>
      </trkpt>
      <trkpt lat="43.704430" lon="5.753460">
       <ele>283</ele>
       <time>2013-10-22T19:16:26Z</time>
      </trkpt>
      <trkpt lat="43.704440" lon="5.753600">
       <ele>283</ele>
       <time>2013-10-22T19:16:28Z</time>
      </trkpt>
      <trkpt lat="43.704410" lon="5.753670">
       <ele>283</ele>
       <time>2013-10-22T19:16:29Z</time>
      </trkpt>
      <trkpt lat="43.704430" lon="5.753860">
       <ele>283</ele>
       <time>2013-10-22T19:16:32Z</time>
      </trkpt>
      <trkpt lat="43.704490" lon="5.753970">
       <ele>283</ele>
       <time>2013-10-22T19:16:34Z</time>
      </trkpt>
      <trkpt lat="43.704570" lon="5.754020">
       <ele>283</ele>
       <time>2013-10-22T19:16:36Z</time>
      </trkpt>
      <trkpt lat="43.704780" lon="5.754230">
       <ele>283</ele>
       <time>2013-10-22T19:16:41Z</time>
      </trkpt>
      <trkpt lat="43.705810" lon="5.755630">
       <ele>288</ele>
       <time>2013-10-22T19:17:11Z</time>
      </trkpt>
      <trkpt lat="43.706070" lon="5.756030">
       <ele>288</ele>
       <time>2013-10-22T19:17:19Z</time>
      </trkpt>
      <trkpt lat="43.708910" lon="5.764570">
       <ele>285</ele>
       <time>2013-10-22T19:19:40Z</time>
      </trkpt>
      <trkpt lat="43.709080" lon="5.765340">
       <ele>286</ele>
       <time>2013-10-22T19:19:52Z</time>
      </trkpt>
      <trkpt lat="43.709090" lon="5.765610">
       <ele>286</ele>
       <time>2013-10-22T19:19:56Z</time>
      </trkpt>
      <trkpt lat="43.709090" lon="5.765780">
       <ele>286</ele>
       <time>2013-10-22T19:19:59Z</time>
      </trkpt>
      <trkpt lat="43.709000" lon="5.766520">
       <ele>288</ele>
       <time>2013-10-22T19:20:10Z</time>
      </trkpt>
      <trkpt lat="43.709010" lon="5.766760">
       <ele>288</ele>
       <time>2013-10-22T19:20:14Z</time>
      </trkpt>
      <trkpt lat="43.709060" lon="5.766970">
       <ele>289</ele>
       <time>2013-10-22T19:20:17Z</time>
      </trkpt>
      <trkpt lat="43.709220" lon="5.767400">
       <ele>290</ele>
       <time>2013-10-22T19:20:24Z</time>
      </trkpt>
      <trkpt lat="43.710010" lon="5.769090">
       <ele>292</ele>
       <time>2013-10-22T19:20:54Z</time>
      </trkpt>
      <trkpt lat="43.710600" lon="5.770140">
       <ele>294</ele>
       <time>2013-10-22T19:21:14Z</time>
      </trkpt>
      <trkpt lat="43.712070" lon="5.773540">
       <ele>293</ele>
       <time>2013-10-22T19:22:14Z</time>
      </trkpt>
      <trkpt lat="43.712180" lon="5.773840">
       <ele>293</ele>
       <time>2013-10-22T19:22:19Z</time>
      </trkpt>
      <trkpt lat="43.712210" lon="5.774150">
       <ele>293</ele>
       <time>2013-10-22T19:22:24Z</time>
      </trkpt>
      <trkpt lat="43.712210" lon="5.774440">
       <ele>292</ele>
       <time>2013-10-22T19:22:28Z</time>
      </trkpt>
      <trkpt lat="43.712170" lon="5.774570">
       <ele>292</ele>
       <time>2013-10-22T19:22:30Z</time>
      </trkpt>
      <trkpt lat="43.712180" lon="5.774690">
       <ele>292</ele>
       <time>2013-10-22T19:22:32Z</time>
      </trkpt>
      <trkpt lat="43.712210" lon="5.774800">
       <ele>292</ele>
       <time>2013-10-22T19:22:34Z</time>
      </trkpt>
      <trkpt lat="43.712280" lon="5.774880">
       <ele>290</ele>
       <time>2013-10-22T19:22:35Z</time>
      </trkpt>
      <trkpt lat="43.712440" lon="5.774920">
       <ele>290</ele>
       <time>2013-10-22T19:22:39Z</time>
      </trkpt>
      <trkpt lat="43.712580" lon="5.775010">
       <ele>290</ele>
       <time>2013-10-22T19:22:42Z</time>
      </trkpt>
      <trkpt lat="43.712700" lon="5.775120">
       <ele>290</ele>
       <time>2013-10-22T19:22:45Z</time>
      </trkpt>
      <trkpt lat="43.712810" lon="5.775270">
       <ele>289</ele>
       <time>2013-10-22T19:22:48Z</time>
      </trkpt>
      <trkpt lat="43.713310" lon="5.776350">
       <ele>289</ele>
       <time>2013-10-22T19:23:07Z</time>
      </trkpt>
      <trkpt lat="43.713550" lon="5.776920">
       <ele>290</ele>
       <time>2013-10-22T19:23:17Z</time>
      </trkpt>
      <trkpt lat="43.714060" lon="5.778440">
       <ele>286</ele>
       <time>2013-10-22T19:23:42Z</time>
      </trkpt>
      <trkpt lat="43.714210" lon="5.778760">
       <ele>284</ele>
       <time>2013-10-22T19:23:48Z</time>
      </trkpt>
      <trkpt lat="43.714420" lon="5.779010">
       <ele>283</ele>
       <time>2013-10-22T19:23:54Z</time>
      </trkpt>
      <trkpt lat="43.714880" lon="5.779340">
       <ele>280</ele>
       <time>2013-10-22T19:24:05Z</time>
      </trkpt>
      <trkpt lat="43.715060" lon="5.779560">
       <ele>280</ele>
       <time>2013-10-22T19:24:10Z</time>
      </trkpt>
      <trkpt lat="43.715190" lon="5.779840">
       <ele>278</ele>
       <time>2013-10-22T19:24:15Z</time>
      </trkpt>
      <trkpt lat="43.715270" lon="5.780100">
       <ele>277</ele>
       <time>2013-10-22T19:24:19Z</time>
      </trkpt>
      <trkpt lat="43.715450" lon="5.781000">
       <ele>272</ele>
       <time>2013-10-22T19:24:33Z</time>
      </trkpt>
      <trkpt lat="43.715870" lon="5.785090">
       <ele>272</ele>
       <time>2013-10-22T19:25:35Z</time>
      </trkpt>
      <trkpt lat="43.716010" lon="5.786970">
       <ele>265</ele>
       <time>2013-10-22T19:26:03Z</time>
      </trkpt>
      <trkpt lat="43.716080" lon="5.787260">
       <ele>264</ele>
       <time>2013-10-22T19:26:08Z</time>
      </trkpt>
      <trkpt lat="43.716170" lon="5.787490">
       <ele>263</ele>
       <time>2013-10-22T19:26:12Z</time>
      </trkpt>
      <trkpt lat="43.716290" lon="5.787660">
       <ele>262</ele>
       <time>2013-10-22T19:26:15Z</time>
      </trkpt>
      <trkpt lat="43.716690" lon="5.788080">
       <ele>261</ele>
       <time>2013-10-22T19:26:26Z</time>
      </trkpt>
      <trkpt lat="43.716740" lon="5.788160">
       <ele>261</ele>
       <time>2013-10-22T19:26:27Z</time>
      </trkpt>
      <trkpt lat="43.716850" lon="5.788440">
       <ele>260</ele>
       <time>2013-10-22T19:26:32Z</time>
      </trkpt>
      <trkpt lat="43.716990" lon="5.789330">
       <ele>261</ele>
       <time>2013-10-22T19:26:46Z</time>
      </trkpt>
      <trkpt lat="43.717060" lon="5.789990">
       <ele>262</ele>
       <time>2013-10-22T19:26:56Z</time>
      </trkpt>
      <trkpt lat="43.717150" lon="5.791860">
       <ele>264</ele>
       <time>2013-10-22T19:27:24Z</time>
      </trkpt>
      <trkpt lat="43.717220" lon="5.792350">
       <ele>265</ele>
       <time>2013-10-22T19:27:31Z</time>
      </trkpt>
      <trkpt lat="43.717670" lon="5.794520">
       <ele>262</ele>
       <time>2013-10-22T19:28:05Z</time>
      </trkpt>
      <trkpt lat="43.717750" lon="5.794650">
       <ele>263</ele>
       <time>2013-10-22T19:28:08Z</time>
      </trkpt>
      <trkpt lat="43.717830" lon="5.794700">
       <ele>263</ele>
       <time>2013-10-22T19:28:09Z</time>
      </trkpt>
      <trkpt lat="43.721030" lon="5.793730">
       <ele>258</ele>
       <time>2013-10-22T19:29:17Z</time>
      </trkpt>
      <trkpt lat="43.722830" lon="5.801160">
       <ele>260</ele>
       <time>2013-10-22T19:31:15Z</time>
      </trkpt>
      <trkpt lat="43.722880" lon="5.801480">
       <ele>261</ele>
       <time>2013-10-22T19:31:20Z</time>
      </trkpt>
      <trkpt lat="43.722830" lon="5.801880">
       <ele>261</ele>
       <time>2013-10-22T19:31:26Z</time>
      </trkpt>
      <trkpt lat="43.722850" lon="5.802040">
       <ele>261</ele>
       <time>2013-10-22T19:31:28Z</time>
      </trkpt>
      <trkpt lat="43.724330" lon="5.807320">
       <ele>265</ele>
       <time>2013-10-22T19:32:53Z</time>
      </trkpt>
      <trkpt lat="43.724430" lon="5.807580">
       <ele>266</ele>
       <time>2013-10-22T19:32:57Z</time>
      </trkpt>
      <trkpt lat="43.724640" lon="5.807910">
       <ele>266</ele>
       <time>2013-10-22T19:33:04Z</time>
      </trkpt>
      <trkpt lat="43.725060" lon="5.807530">
       <ele>265</ele>
       <time>2013-10-22T19:33:14Z</time>
      </trkpt>
      <trkpt lat="43.725250" lon="5.807720">
       <ele>265</ele>
       <time>2013-10-22T19:33:19Z</time>
      </trkpt>
      <trkpt lat="43.725330" lon="5.807930">
       <ele>265</ele>
       <time>2013-10-22T19:33:23Z</time>
      </trkpt>
      <trkpt lat="43.725390" lon="5.809180">
       <ele>267</ele>
       <time>2013-10-22T19:33:42Z</time>
      </trkpt>
      <trkpt lat="43.725490" lon="5.809810">
       <ele>268</ele>
       <time>2013-10-22T19:33:51Z</time>
      </trkpt>
      <trkpt lat="43.725650" lon="5.810370">
       <ele>269</ele>
       <time>2013-10-22T19:34:00Z</time>
      </trkpt>
      <trkpt lat="43.725780" lon="5.810650">
       <ele>270</ele>
       <time>2013-10-22T19:34:05Z</time>
      </trkpt>
      <trkpt lat="43.725970" lon="5.810930">
       <ele>271</ele>
       <time>2013-10-22T19:34:11Z</time>
      </trkpt>
      <trkpt lat="43.726210" lon="5.811000">
       <ele>272</ele>
       <time>2013-10-22T19:34:16Z</time>
      </trkpt>
      <trkpt lat="43.726440" lon="5.811240">
       <ele>271</ele>
       <time>2013-10-22T19:34:22Z</time>
      </trkpt>
      <trkpt lat="43.726600" lon="5.811720">
       <ele>270</ele>
       <time>2013-10-22T19:34:30Z</time>
      </trkpt>
      <trkpt lat="43.726660" lon="5.812090">
       <ele>271</ele>
       <time>2013-10-22T19:34:36Z</time>
      </trkpt>
      <trkpt lat="43.726680" lon="5.812880">
       <ele>272</ele>
       <time>2013-10-22T19:34:47Z</time>
      </trkpt>
      <trkpt lat="43.726730" lon="5.813030">
       <ele>272</ele>
       <time>2013-10-22T19:34:50Z</time>
      </trkpt>
      <trkpt lat="43.726760" lon="5.813090">
       <ele>272</ele>
       <time>2013-10-22T19:34:51Z</time>
      </trkpt>
      <trkpt lat="43.726840" lon="5.813130">
       <ele>269</ele>
       <time>2013-10-22T19:34:53Z</time>
      </trkpt>
      <trkpt lat="43.726920" lon="5.813150">
       <ele>269</ele>
       <time>2013-10-22T19:34:55Z</time>
      </trkpt>
      <trkpt lat="43.727030" lon="5.813140">
       <ele>269</ele>
       <time>2013-10-22T19:34:57Z</time>
      </trkpt>
      <trkpt lat="43.727420" lon="5.812980">
       <ele>265</ele>
       <time>2013-10-22T19:35:05Z</time>
      </trkpt>
      <trkpt lat="43.728660" lon="5.812740">
       <ele>269</ele>
       <time>2013-10-22T19:35:31Z</time>
      </trkpt>
    </trkseg>
  </trk>
</gpx>
